<?xml version='1.0' encoding='UTF-8'?>
<gpx xmlns="http://www.topografix.com/GPX/1/1" creator="www.balnam.be" version="1.1" xmlns:xsi="http://www.w3.org/2001/XMLSchema-instance" xsi:schemaLocation="http://www.topografix.com/GPX/1/1 http://www.topografix.com/GPX/1/1/gpx.xsd">
<trk>
<name>nvvov1</name>
<cmt>v</cmt>
<desc>Olloy-sur-Viroin Chemin n°1 Chemin de la Taille de Baimont</desc>
<link href="https://chemins.be/olloy/chemin/1"/><trkseg>
<trkpt lat="50.073983" lon="4.606813"><time>2026-05-06T18:37:48Z</time></trkpt>
<trkpt lat="50.073731" lon="4.606882"><time>2026-05-06T18:47:48Z</time></trkpt>
<trkpt lat="50.073263" lon="4.607089"><time>2026-05-06T18:57:48Z</time></trkpt>
</trkseg></trk>
<trk>
<name>nvvov1</name>
<cmt>r</cmt>
<desc>Olloy-sur-Viroin Chemin n°1 Chemin de la Taille de Baimont</desc>
<link href="https://chemins.be/olloy/chemin/1"/><trkseg>
<trkpt lat="50.073263" lon="4.607089"><time>2026-05-06T18:57:48Z</time></trkpt>
<trkpt lat="50.072634" lon="4.606863"><time>2026-05-06T19:07:48Z</time></trkpt>
<trkpt lat="50.071951" lon="4.606692"><time>2026-05-06T19:17:48Z</time></trkpt>
<trkpt lat="50.071287" lon="4.606381"><time>2026-05-06T19:27:48Z</time></trkpt>
</trkseg></trk>
<trk>
<name>nvvov1</name>
<cmt>v</cmt>
<desc>Olloy-sur-Viroin Chemin n°1 Chemin de la Taille de Baimont</desc>
<link href="https://chemins.be/olloy/chemin/1"/><trkseg>
<trkpt lat="50.071287" lon="4.606381"><time>2026-05-06T19:27:48Z</time></trkpt>
<trkpt lat="50.070873" lon="4.606407"><time>2026-05-06T19:37:48Z</time></trkpt>
<trkpt lat="50.070516" lon="4.605078"><time>2026-05-06T19:47:48Z</time></trkpt>
<trkpt lat="50.070213" lon="4.604029"><time>2026-05-06T19:57:48Z</time></trkpt>
<trkpt lat="50.069363" lon="4.601650"><time>2026-05-06T20:07:48Z</time></trkpt>
<trkpt lat="50.068819" lon="4.599412"><time>2026-05-06T20:17:48Z</time></trkpt>
<trkpt lat="50.067961" lon="4.596852"><time>2026-05-06T20:27:48Z</time></trkpt>
<trkpt lat="50.067559" lon="4.595705"><time>2026-05-06T20:37:48Z</time></trkpt>
<trkpt lat="50.067362" lon="4.595131"><time>2026-05-06T20:47:48Z</time></trkpt>
<trkpt lat="50.066466" lon="4.593590"><time>2026-05-06T20:57:48Z</time></trkpt>
<trkpt lat="50.065777" lon="4.592330"><time>2026-05-06T21:07:48Z</time></trkpt>
<trkpt lat="50.064907" lon="4.591139"><time>2026-05-06T21:17:48Z</time></trkpt>
<trkpt lat="50.063650" lon="4.589988"><time>2026-05-06T21:27:48Z</time></trkpt>
<trkpt lat="50.063023" lon="4.589007"><time>2026-05-06T21:37:48Z</time></trkpt>
<trkpt lat="50.061146" lon="4.587937"><time>2026-05-06T21:47:48Z</time></trkpt>
<trkpt lat="50.061128" lon="4.587951"><time>2026-05-06T21:57:48Z</time></trkpt>
<trkpt lat="50.060005" lon="4.587192"><time>2026-05-06T22:07:48Z</time></trkpt>
<trkpt lat="50.056126" lon="4.581676"><time>2026-05-06T22:17:48Z</time></trkpt>
<trkpt lat="50.055401" lon="4.580825"><time>2026-05-06T22:27:48Z</time></trkpt>
</trkseg>
</trk>
<trk>
<name>nvvov10</name>
<cmt>r</cmt>
<desc>Olloy-sur-Viroin Chemin n°10 Cheraivoie / ? / Rue de la Croisette</desc>
<link href="https://chemins.be/olloy/chemin/10"/><trkseg>
<trkpt lat="50.074013" lon="4.609817"><time>2026-05-06T18:37:48Z</time></trkpt>
<trkpt lat="50.073733" lon="4.610109"><time>2026-05-06T18:47:48Z</time></trkpt>
<trkpt lat="50.072960" lon="4.610119"><time>2026-05-06T18:57:48Z</time></trkpt>
<trkpt lat="50.072402" lon="4.610535"><time>2026-05-06T19:07:48Z</time></trkpt>
<trkpt lat="50.072105" lon="4.610646"><time>2026-05-06T19:17:48Z</time></trkpt>
<trkpt lat="50.071413" lon="4.610628"><time>2026-05-06T19:27:48Z</time></trkpt>
<trkpt lat="50.071125" lon="4.610529"><time>2026-05-06T19:37:48Z</time></trkpt>
</trkseg></trk>
<trk>
<name>nvvov10</name>
<cmt>v</cmt>
<desc>Olloy-sur-Viroin Chemin n°10 Cheraivoie / ? / Rue de la Croisette</desc>
<link href="https://chemins.be/olloy/chemin/10"/><trkseg>
<trkpt lat="50.071125" lon="4.610529"><time>2026-05-06T19:37:48Z</time></trkpt>
<trkpt lat="50.069976" lon="4.609992"><time>2026-05-06T19:47:48Z</time></trkpt>
</trkseg></trk>
<trk>
<name>nvvov10</name>
<cmt>r</cmt>
<desc>Olloy-sur-Viroin Chemin n°10 Cheraivoie / ? / Rue de la Croisette</desc>
<link href="https://chemins.be/olloy/chemin/10"/><trkseg>
<trkpt lat="50.069976" lon="4.609992"><time>2026-05-06T19:47:48Z</time></trkpt>
<trkpt lat="50.068206" lon="4.608992"><time>2026-05-06T19:57:48Z</time></trkpt>
<trkpt lat="50.067146" lon="4.608972"><time>2026-05-06T20:07:48Z</time></trkpt>
<trkpt lat="50.065519" lon="4.608531"><time>2026-05-06T20:17:48Z</time></trkpt>
</trkseg>
</trk>
<trk>
<name>nvvov11</name>
<cmt>r</cmt>
<desc>Olloy-sur-Viroin Chemin n°11 Rue de la Champagne / Rue Champagne Camping</desc>
<link href="https://chemins.be/olloy/chemin/11"/><trkseg>
<trkpt lat="50.072455" lon="4.606638"><time>2026-05-06T18:37:48Z</time></trkpt>
<trkpt lat="50.072218" lon="4.603620"><time>2026-05-06T18:47:48Z</time></trkpt>
<trkpt lat="50.070421" lon="4.598959"><time>2026-05-06T18:57:48Z</time></trkpt>
<trkpt lat="50.069500" lon="4.596426"><time>2026-05-06T19:07:48Z</time></trkpt>
<trkpt lat="50.068250" lon="4.596225"><time>2026-05-06T19:17:48Z</time></trkpt>
</trkseg></trk>
<trk>
<name>nvvov11</name>
<cmt>s</cmt>
<desc>Olloy-sur-Viroin Chemin n°11 Rue de la Champagne / Rue Champagne Camping</desc>
<link href="https://chemins.be/olloy/chemin/11"/><trkseg>
<trkpt lat="50.068250" lon="4.596225"><time>2026-05-06T19:17:48Z</time></trkpt>
<trkpt lat="50.067577" lon="4.595635"><time>2026-05-06T19:27:48Z</time></trkpt>
</trkseg>
</trk>
<trk>
<name>nvvov12</name>
<cmt>v</cmt>
<desc>Olloy-sur-Viroin Chemin n°12 Rue Autre Côté de l'Eau</desc>
<link href="https://chemins.be/olloy/chemin/12"/><trkseg>
<trkpt lat="50.075837" lon="4.598152"><time>2026-05-06T18:37:48Z</time></trkpt>
<trkpt lat="50.075919" lon="4.597426"><time>2026-05-06T18:47:48Z</time></trkpt>
<trkpt lat="50.076088" lon="4.597212"><time>2026-05-06T18:57:48Z</time></trkpt>
<trkpt lat="50.076385" lon="4.597242"><time>2026-05-06T19:07:48Z</time></trkpt>
<trkpt lat="50.076924" lon="4.597677"><time>2026-05-06T19:17:48Z</time></trkpt>
<trkpt lat="50.077534" lon="4.598197"><time>2026-05-06T19:27:48Z</time></trkpt>
<trkpt lat="50.077866" lon="4.598380"><time>2026-05-06T19:37:48Z</time></trkpt>
<trkpt lat="50.078720" lon="4.598552"><time>2026-05-06T19:47:48Z</time></trkpt>
<trkpt lat="50.079286" lon="4.598806"><time>2026-05-06T19:57:48Z</time></trkpt>
<trkpt lat="50.079995" lon="4.599313"><time>2026-05-06T20:07:48Z</time></trkpt>
</trkseg>
</trk>
<trk>
<name>nvvov13</name>
<cmt>r</cmt>
<desc>Olloy-sur-Viroin Chemin n°13 Rue de la Bossette</desc>
<link href="https://chemins.be/olloy/chemin/13"/><trkseg>
<trkpt lat="50.070403" lon="4.611922"><time>2026-05-06T18:37:48Z</time></trkpt>
<trkpt lat="50.070005" lon="4.612884"><time>2026-05-06T18:47:48Z</time></trkpt>
</trkseg>
</trk>
<trk>
<name>nvvov14</name>
<cmt>r</cmt>
<desc>Olloy-sur-Viroin Chemin n°14 Rue du Nestry / ?</desc>
<link href="https://chemins.be/olloy/chemin/14"/><trkseg>
<trkpt lat="50.069372" lon="4.610757"><time>2026-05-06T18:37:48Z</time></trkpt>
<trkpt lat="50.067509" lon="4.611265"><time>2026-05-06T18:47:48Z</time></trkpt>
<trkpt lat="50.066508" lon="4.613075"><time>2026-05-06T18:57:48Z</time></trkpt>
</trkseg></trk>
<trk>
<name>nvvov14</name>
<cmt>d</cmt>
<desc>Olloy-sur-Viroin Chemin n°14 Rue du Nestry / ?</desc>
<link href="https://chemins.be/olloy/chemin/14"/><trkseg>
<trkpt lat="50.066508" lon="4.613075"><time>2026-05-06T18:57:48Z</time></trkpt>
<trkpt lat="50.064846" lon="4.616433"><time>2026-05-06T19:07:48Z</time></trkpt>
<trkpt lat="50.064756" lon="4.616349"><time>2026-05-06T19:17:48Z</time></trkpt>
</trkseg>
</trk>
<trk>
<name>nvvov15</name>
<cmt>d</cmt>
<desc>Olloy-sur-Viroin Chemin n°15 Rue du Vignoble</desc>
<link href="https://chemins.be/olloy/chemin/15"/><trkseg>
<trkpt lat="50.076267" lon="4.606685"><time>2026-05-06T18:37:48Z</time></trkpt>
<trkpt lat="50.077078" lon="4.610126"><time>2026-05-06T18:47:48Z</time></trkpt>
<trkpt lat="50.077140" lon="4.610573"><time>2026-05-06T18:57:48Z</time></trkpt>
<trkpt lat="50.076966" lon="4.612053"><time>2026-05-06T19:07:48Z</time></trkpt>
<trkpt lat="50.076874" lon="4.613115"><time>2026-05-06T19:17:48Z</time></trkpt>
<trkpt lat="50.076673" lon="4.614720"><time>2026-05-06T19:27:48Z</time></trkpt>
</trkseg>
</trk>
<trk>
<name>nvvov16</name>
<cmt>v</cmt>
<desc>Olloy-sur-Viroin Chemin n°16 </desc>
<link href="https://chemins.be/olloy/chemin/16"/><trkseg>
<trkpt lat="50.070761" lon="4.599450"><time>2026-05-06T18:37:48Z</time></trkpt>
<trkpt lat="50.070244" lon="4.597534"><time>2026-05-06T18:47:48Z</time></trkpt>
<trkpt lat="50.070219" lon="4.596653"><time>2026-05-06T18:57:48Z</time></trkpt>
<trkpt lat="50.069633" lon="4.592781"><time>2026-05-06T19:07:48Z</time></trkpt>
<trkpt lat="50.069279" lon="4.589707"><time>2026-05-06T19:17:48Z</time></trkpt>
<trkpt lat="50.068859" lon="4.588503"><time>2026-05-06T19:27:48Z</time></trkpt>
</trkseg>
</trk>
<trk>
<name>nvvov17</name>
<cmt>r</cmt>
<desc>Olloy-sur-Viroin Chemin n°17 Chemin de Nouée / Rue de la Croisette / Chemin du Plane</desc>
<link href="https://chemins.be/olloy/chemin/17"/><trkseg>
<trkpt lat="50.066798" lon="4.608756"><time>2026-05-06T18:37:48Z</time></trkpt>
<trkpt lat="50.066318" lon="4.608046"><time>2026-05-06T18:47:48Z</time></trkpt>
</trkseg></trk>
<trk>
<name>nvvov17</name>
<cmt>v</cmt>
<desc>Olloy-sur-Viroin Chemin n°17 Chemin de Nouée / Rue de la Croisette / Chemin du Plane</desc>
<link href="https://chemins.be/olloy/chemin/17"/><trkseg>
<trkpt lat="50.066318" lon="4.608046"><time>2026-05-06T18:47:48Z</time></trkpt>
<trkpt lat="50.066308" lon="4.608046"><time>2026-05-06T18:57:48Z</time></trkpt>
<trkpt lat="50.066098" lon="4.607986"><time>2026-05-06T19:07:48Z</time></trkpt>
<trkpt lat="50.065268" lon="4.607366"><time>2026-05-06T19:17:48Z</time></trkpt>
<trkpt lat="50.064978" lon="4.606146"><time>2026-05-06T19:27:48Z</time></trkpt>
<trkpt lat="50.064777" lon="4.605541"><time>2026-05-06T19:37:48Z</time></trkpt>
<trkpt lat="50.063648" lon="4.604506"><time>2026-05-06T19:47:48Z</time></trkpt>
<trkpt lat="50.062718" lon="4.604296"><time>2026-05-06T19:57:48Z</time></trkpt>
<trkpt lat="50.061128" lon="4.604106"><time>2026-05-06T20:07:48Z</time></trkpt>
<trkpt lat="50.060024" lon="4.603519"><time>2026-05-06T20:17:48Z</time></trkpt>
<trkpt lat="50.059734" lon="4.601735"><time>2026-05-06T20:27:48Z</time></trkpt>
<trkpt lat="50.058308" lon="4.599386"><time>2026-05-06T20:37:48Z</time></trkpt>
<trkpt lat="50.057828" lon="4.597956"><time>2026-05-06T20:47:48Z</time></trkpt>
<trkpt lat="50.057458" lon="4.596346"><time>2026-05-06T20:57:48Z</time></trkpt>
<trkpt lat="50.057028" lon="4.594496"><time>2026-05-06T21:07:48Z</time></trkpt>
<trkpt lat="50.056975" lon="4.593742"><time>2026-05-06T21:17:48Z</time></trkpt>
<trkpt lat="50.056944" lon="4.593575"><time>2026-05-06T21:27:48Z</time></trkpt>
<trkpt lat="50.056882" lon="4.593296"><time>2026-05-06T21:37:48Z</time></trkpt>
<trkpt lat="50.056455" lon="4.592690"><time>2026-05-06T21:47:48Z</time></trkpt>
<trkpt lat="50.056128" lon="4.592156"><time>2026-05-06T21:57:48Z</time></trkpt>
</trkseg>
</trk>
<trk>
<name>nvvov18</name>
<cmt>v</cmt>
<desc>Olloy-sur-Viroin Chemin n°18 </desc>
<link href="https://chemins.be/olloy/chemin/18"/><trkseg>
<trkpt lat="50.060222" lon="4.617917"><time>2026-05-06T18:37:48Z</time></trkpt>
<trkpt lat="50.059839" lon="4.618759"><time>2026-05-06T18:47:48Z</time></trkpt>
<trkpt lat="50.060142" lon="4.619257"><time>2026-05-06T18:57:48Z</time></trkpt>
<trkpt lat="50.059474" lon="4.619762"><time>2026-05-06T19:07:48Z</time></trkpt>
<trkpt lat="50.059003" lon="4.620355"><time>2026-05-06T19:17:48Z</time></trkpt>
<trkpt lat="50.058390" lon="4.620743"><time>2026-05-06T19:27:48Z</time></trkpt>
<trkpt lat="50.058219" lon="4.621007"><time>2026-05-06T19:37:48Z</time></trkpt>
<trkpt lat="50.056868" lon="4.622201"><time>2026-05-06T19:47:48Z</time></trkpt>
<trkpt lat="50.055542" lon="4.624177"><time>2026-05-06T19:57:48Z</time></trkpt>
<trkpt lat="50.054506" lon="4.625093"><time>2026-05-06T20:07:48Z</time></trkpt>
<trkpt lat="50.053210" lon="4.625533"><time>2026-05-06T20:17:48Z</time></trkpt>
<trkpt lat="50.052103" lon="4.626225"><time>2026-05-06T20:27:48Z</time></trkpt>
<trkpt lat="50.049858" lon="4.625166"><time>2026-05-06T20:37:48Z</time></trkpt>
<trkpt lat="50.048219" lon="4.626372"><time>2026-05-06T20:47:48Z</time></trkpt>
<trkpt lat="50.047616" lon="4.626480"><time>2026-05-06T20:57:48Z</time></trkpt>
<trkpt lat="50.047490" lon="4.626591"><time>2026-05-06T21:07:48Z</time></trkpt>
<trkpt lat="50.047058" lon="4.626561"><time>2026-05-06T21:17:48Z</time></trkpt>
<trkpt lat="50.045361" lon="4.625784"><time>2026-05-06T21:27:48Z</time></trkpt>
<trkpt lat="50.044381" lon="4.625653"><time>2026-05-06T21:37:48Z</time></trkpt>
</trkseg>
</trk>
<trk>
<name>nvvov19</name>
<cmt>r</cmt>
<desc>Olloy-sur-Viroin Chemin n°19 Rue du Nestry / ? / Rue de la Bossette Camping</desc>
<link href="https://chemins.be/olloy/chemin/19"/><trkseg>
<trkpt lat="50.065296" lon="4.612273"><time>2026-05-06T18:37:48Z</time></trkpt>
<trkpt lat="50.066499" lon="4.613020"><time>2026-05-06T18:47:48Z</time></trkpt>
</trkseg></trk>
<trk>
<name>nvvov19</name>
<cmt>v</cmt>
<desc>Olloy-sur-Viroin Chemin n°19 Rue du Nestry / ? / Rue de la Bossette Camping</desc>
<link href="https://chemins.be/olloy/chemin/19"/><trkseg>
<trkpt lat="50.066499" lon="4.613020"><time>2026-05-06T18:47:48Z</time></trkpt>
<trkpt lat="50.066840" lon="4.613343"><time>2026-05-06T18:57:48Z</time></trkpt>
</trkseg></trk>
<trk>
<name>nvvov19</name>
<cmt>s</cmt>
<desc>Olloy-sur-Viroin Chemin n°19 Rue du Nestry / ? / Rue de la Bossette Camping</desc>
<link href="https://chemins.be/olloy/chemin/19"/><trkseg>
<trkpt lat="50.066840" lon="4.613343"><time>2026-05-06T18:57:48Z</time></trkpt>
<trkpt lat="50.067208" lon="4.613568"><time>2026-05-06T19:07:48Z</time></trkpt>
<trkpt lat="50.068440" lon="4.613309"><time>2026-05-06T19:17:48Z</time></trkpt>
</trkseg></trk>
<trk>
<name>nvvov19</name>
<cmt>v</cmt>
<desc>Olloy-sur-Viroin Chemin n°19 Rue du Nestry / ? / Rue de la Bossette Camping</desc>
<link href="https://chemins.be/olloy/chemin/19"/><trkseg>
<trkpt lat="50.068440" lon="4.613309"><time>2026-05-06T19:17:48Z</time></trkpt>
<trkpt lat="50.069267" lon="4.613551"><time>2026-05-06T19:27:48Z</time></trkpt>
<trkpt lat="50.069699" lon="4.613204"><time>2026-05-06T19:37:48Z</time></trkpt>
<trkpt lat="50.070020" lon="4.614295"><time>2026-05-06T19:47:48Z</time></trkpt>
<trkpt lat="50.070515" lon="4.614423"><time>2026-05-06T19:57:48Z</time></trkpt>
</trkseg>
</trk>
<trk>
<name>nvvov2</name>
<cmt>r</cmt>
<desc>Olloy-sur-Viroin Chemin n°2 Rue Jean Chot / Route du Viroin</desc>
<link href="https://chemins.be/olloy/chemin/2"/><trkseg>
<trkpt lat="50.074082" lon="4.606674"><time>2026-05-06T18:37:48Z</time></trkpt>
<trkpt lat="50.073404" lon="4.604198"><time>2026-05-06T18:47:48Z</time></trkpt>
<trkpt lat="50.073370" lon="4.603360"><time>2026-05-06T18:57:48Z</time></trkpt>
<trkpt lat="50.073797" lon="4.601071"><time>2026-05-06T19:07:48Z</time></trkpt>
<trkpt lat="50.073971" lon="4.599619"><time>2026-05-06T19:17:48Z</time></trkpt>
<trkpt lat="50.074036" lon="4.598250"><time>2026-05-06T19:27:48Z</time></trkpt>
<trkpt lat="50.074172" lon="4.597650"><time>2026-05-06T19:37:48Z</time></trkpt>
<trkpt lat="50.073826" lon="4.595497"><time>2026-05-06T19:47:48Z</time></trkpt>
<trkpt lat="50.073513" lon="4.594518"><time>2026-05-06T19:57:48Z</time></trkpt>
<trkpt lat="50.072398" lon="4.590252"><time>2026-05-06T20:07:48Z</time></trkpt>
<trkpt lat="50.072345" lon="4.589483"><time>2026-05-06T20:17:48Z</time></trkpt>
<trkpt lat="50.072077" lon="4.588476"><time>2026-05-06T20:27:48Z</time></trkpt>
<trkpt lat="50.071763" lon="4.588140"><time>2026-05-06T20:37:48Z</time></trkpt>
<trkpt lat="50.070987" lon="4.585077"><time>2026-05-06T20:47:48Z</time></trkpt>
<trkpt lat="50.069103" lon="4.578168"><time>2026-05-06T20:57:48Z</time></trkpt>
</trkseg>
</trk>
<trk>
<name>nvvov20</name>
<cmt>v</cmt>
<desc>Olloy-sur-Viroin Chemin n°20 </desc>
<link href="https://chemins.be/olloy/chemin/20"/><trkseg>
<trkpt lat="50.065114" lon="4.612985"><time>2026-05-06T18:37:48Z</time></trkpt>
<trkpt lat="50.064745" lon="4.613290"><time>2026-05-06T18:47:48Z</time></trkpt>
<trkpt lat="50.063763" lon="4.614081"><time>2026-05-06T18:57:48Z</time></trkpt>
<trkpt lat="50.062738" lon="4.614160"><time>2026-05-06T19:07:48Z</time></trkpt>
<trkpt lat="50.061569" lon="4.614349"><time>2026-05-06T19:17:48Z</time></trkpt>
<trkpt lat="50.060589" lon="4.614400"><time>2026-05-06T19:27:48Z</time></trkpt>
<trkpt lat="50.059384" lon="4.614268"><time>2026-05-06T19:37:48Z</time></trkpt>
<trkpt lat="50.058352" lon="4.613662"><time>2026-05-06T19:47:48Z</time></trkpt>
<trkpt lat="50.056107" lon="4.612519"><time>2026-05-06T19:57:48Z</time></trkpt>
</trkseg></trk>
<trk>
<name>nvvov20</name>
<cmt>d</cmt>
<desc>Olloy-sur-Viroin Chemin n°20 </desc>
<link href="https://chemins.be/olloy/chemin/20"/><trkseg>
<trkpt lat="50.056107" lon="4.612519"><time>2026-05-06T19:57:48Z</time></trkpt>
<trkpt lat="50.054796" lon="4.611689"><time>2026-05-06T20:07:48Z</time></trkpt>
<trkpt lat="50.053178" lon="4.611346"><time>2026-05-06T20:17:48Z</time></trkpt>
</trkseg>
</trk>
<trk>
<name>nvvov21</name>
<cmt>v</cmt>
<desc>Olloy-sur-Viroin Chemin n°21 Rue des Lavandières / Rue des Lavandieres</desc>
<link href="https://chemins.be/olloy/chemin/21"/><trkseg>
<trkpt lat="50.072073" lon="4.621108"><time>2026-05-06T18:37:48Z</time></trkpt>
<trkpt lat="50.072244" lon="4.621263"><time>2026-05-06T18:47:48Z</time></trkpt>
<trkpt lat="50.072686" lon="4.620790"><time>2026-05-06T18:57:48Z</time></trkpt>
<trkpt lat="50.073021" lon="4.619591"><time>2026-05-06T19:07:48Z</time></trkpt>
<trkpt lat="50.073669" lon="4.619133"><time>2026-05-06T19:17:48Z</time></trkpt>
<trkpt lat="50.075980" lon="4.618964"><time>2026-05-06T19:27:48Z</time></trkpt>
</trkseg></trk>
<trk>
<name>nvvov21</name>
<cmt>d</cmt>
<desc>Olloy-sur-Viroin Chemin n°21 Rue des Lavandières / Rue des Lavandieres</desc>
<link href="https://chemins.be/olloy/chemin/21"/><trkseg>
<trkpt lat="50.075980" lon="4.618964"><time>2026-05-06T19:27:48Z</time></trkpt>
<trkpt lat="50.077219" lon="4.619585"><time>2026-05-06T19:37:48Z</time></trkpt>
<trkpt lat="50.077533" lon="4.620341"><time>2026-05-06T19:47:48Z</time></trkpt>
<trkpt lat="50.078025" lon="4.621098"><time>2026-05-06T19:57:48Z</time></trkpt>
</trkseg></trk>
<trk>
<name>nvvov21</name>
<cmt>r</cmt>
<desc>Olloy-sur-Viroin Chemin n°21 Rue des Lavandières / Rue des Lavandieres</desc>
<link href="https://chemins.be/olloy/chemin/21"/><trkseg>
<trkpt lat="50.078025" lon="4.621098"><time>2026-05-06T19:57:48Z</time></trkpt>
<trkpt lat="50.078603" lon="4.624119"><time>2026-05-06T20:07:48Z</time></trkpt>
</trkseg></trk>
<trk>
<name>nvvov21</name>
<cmt>q</cmt>
<desc>Olloy-sur-Viroin Chemin n°21 Rue des Lavandières / Rue des Lavandieres</desc>
<link href="https://chemins.be/olloy/chemin/21"/><trkseg>
<trkpt lat="50.078603" lon="4.624119"><time>2026-05-06T20:07:48Z</time></trkpt>
<trkpt lat="50.078619" lon="4.625069"><time>2026-05-06T20:17:48Z</time></trkpt>
<trkpt lat="50.079482" lon="4.629223"><time>2026-05-06T20:27:48Z</time></trkpt>
<trkpt lat="50.079801" lon="4.631223"><time>2026-05-06T20:37:48Z</time></trkpt>
</trkseg>
</trk>
<trk>
<name>nvvov23</name>
<cmt>d</cmt>
<desc>Olloy-sur-Viroin Chemin n°23 </desc>
<link href="https://chemins.be/olloy/chemin/23"/><trkseg>
<trkpt lat="50.069749" lon="4.615118"><time>2026-05-06T18:37:48Z</time></trkpt>
<trkpt lat="50.069784" lon="4.615397"><time>2026-05-06T18:47:48Z</time></trkpt>
<trkpt lat="50.069765" lon="4.615760"><time>2026-05-06T18:57:48Z</time></trkpt>
<trkpt lat="50.069711" lon="4.615969"><time>2026-05-06T19:07:48Z</time></trkpt>
</trkseg>
</trk>
<trk>
<name>nvvov25</name>
<cmt>r</cmt>
<desc>Olloy-sur-Viroin Chemin n°25 Rue des Hérutis / ?</desc>
<link href="https://chemins.be/olloy/chemin/25"/><trkseg>
<trkpt lat="50.065528" lon="4.608671"><time>2026-05-06T18:37:48Z</time></trkpt>
<trkpt lat="50.065479" lon="4.610416"><time>2026-05-06T18:47:48Z</time></trkpt>
<trkpt lat="50.065296" lon="4.612259"><time>2026-05-06T18:57:48Z</time></trkpt>
</trkseg></trk>
<trk>
<name>nvvov25</name>
<cmt>v</cmt>
<desc>Olloy-sur-Viroin Chemin n°25 Rue des Hérutis / ?</desc>
<link href="https://chemins.be/olloy/chemin/25"/><trkseg>
<trkpt lat="50.065296" lon="4.612259"><time>2026-05-06T18:57:48Z</time></trkpt>
<trkpt lat="50.065123" lon="4.613068"><time>2026-05-06T19:07:48Z</time></trkpt>
<trkpt lat="50.064832" lon="4.614687"><time>2026-05-06T19:17:48Z</time></trkpt>
<trkpt lat="50.064774" lon="4.616349"><time>2026-05-06T19:27:48Z</time></trkpt>
<trkpt lat="50.064441" lon="4.616906"><time>2026-05-06T19:37:48Z</time></trkpt>
<trkpt lat="50.063386" lon="4.617948"><time>2026-05-06T19:47:48Z</time></trkpt>
<trkpt lat="50.061381" lon="4.618035"><time>2026-05-06T19:57:48Z</time></trkpt>
<trkpt lat="50.060510" lon="4.617877"><time>2026-05-06T20:07:48Z</time></trkpt>
<trkpt lat="50.059844" lon="4.617873"><time>2026-05-06T20:17:48Z</time></trkpt>
<trkpt lat="50.058701" lon="4.618580"><time>2026-05-06T20:27:48Z</time></trkpt>
<trkpt lat="50.058386" lon="4.618815"><time>2026-05-06T20:37:48Z</time></trkpt>
<trkpt lat="50.058062" lon="4.618967"><time>2026-05-06T20:47:48Z</time></trkpt>
<trkpt lat="50.057763" lon="4.619664"><time>2026-05-06T20:57:48Z</time></trkpt>
<trkpt lat="50.056612" lon="4.620035"><time>2026-05-06T21:07:48Z</time></trkpt>
<trkpt lat="50.055822" lon="4.620699"><time>2026-05-06T21:17:48Z</time></trkpt>
<trkpt lat="50.054571" lon="4.620742"><time>2026-05-06T21:27:48Z</time></trkpt>
<trkpt lat="50.053563" lon="4.620124"><time>2026-05-06T21:37:48Z</time></trkpt>
<trkpt lat="50.052471" lon="4.619506"><time>2026-05-06T21:47:48Z</time></trkpt>
<trkpt lat="50.051998" lon="4.618948"><time>2026-05-06T21:57:48Z</time></trkpt>
<trkpt lat="50.052075" lon="4.618489"><time>2026-05-06T22:07:48Z</time></trkpt>
<trkpt lat="50.050960" lon="4.618511"><time>2026-05-06T22:17:48Z</time></trkpt>
<trkpt lat="50.049781" lon="4.618966"><time>2026-05-06T22:27:48Z</time></trkpt>
<trkpt lat="50.048541" lon="4.618876"><time>2026-05-06T22:37:48Z</time></trkpt>
<trkpt lat="50.045618" lon="4.619293"><time>2026-05-06T22:47:48Z</time></trkpt>
<trkpt lat="50.041684" lon="4.617499"><time>2026-05-06T22:57:48Z</time></trkpt>
<trkpt lat="50.039931" lon="4.617113"><time>2026-05-06T23:07:48Z</time></trkpt>
<trkpt lat="50.037232" lon="4.618272"><time>2026-05-06T23:17:48Z</time></trkpt>
<trkpt lat="50.035985" lon="4.621169"><time>2026-05-06T23:27:48Z</time></trkpt>
<trkpt lat="50.035237" lon="4.621919"><time>2026-05-06T23:37:48Z</time></trkpt>
</trkseg>
</trk>
<trk>
<name>nvvov26</name>
<cmt>v</cmt>
<desc>Olloy-sur-Viroin Chemin n°26 </desc>
<link href="https://chemins.be/olloy/chemin/26"/><trkseg>
<trkpt lat="50.069239" lon="4.613676"><time>2026-05-06T18:37:48Z</time></trkpt>
<trkpt lat="50.068806" lon="4.614414"><time>2026-05-06T18:47:48Z</time></trkpt>
<trkpt lat="50.068606" lon="4.615615"><time>2026-05-06T18:57:48Z</time></trkpt>
</trkseg>
</trk>
<trk>
<name>nvvov27</name>
<cmt>v</cmt>
<desc>Olloy-sur-Viroin Chemin n°27 </desc>
<link href="https://chemins.be/olloy/chemin/27"/><trkseg>
<trkpt lat="50.075863" lon="4.597630"><time>2026-05-06T18:37:48Z</time></trkpt>
<trkpt lat="50.075765" lon="4.597211"><time>2026-05-06T18:47:48Z</time></trkpt>
<trkpt lat="50.075667" lon="4.596428"><time>2026-05-06T18:57:48Z</time></trkpt>
</trkseg>
</trk>
<trk>
<name>nvvov28</name>
<cmt>v</cmt>
<desc>Olloy-sur-Viroin Chemin n°28 </desc>
<link href="https://chemins.be/olloy/chemin/28"/><trkseg>
<trkpt lat="50.078141" lon="4.621602"><time>2026-05-06T18:37:48Z</time></trkpt>
<trkpt lat="50.078392" lon="4.622078"><time>2026-05-06T18:47:48Z</time></trkpt>
<trkpt lat="50.078606" lon="4.622694"><time>2026-05-06T18:57:48Z</time></trkpt>
</trkseg>
</trk>
<trk>
<name>nvvov29</name>
<cmt>v</cmt>
<desc>Olloy-sur-Viroin Chemin n°29 Chemin de la Goulette / Rue de la Goulette</desc>
<link href="https://chemins.be/olloy/chemin/29"/><trkseg>
<trkpt lat="50.076168" lon="4.606671"><time>2026-05-06T18:37:48Z</time></trkpt>
<trkpt lat="50.076779" lon="4.606730"><time>2026-05-06T18:47:48Z</time></trkpt>
<trkpt lat="50.077291" lon="4.606872"><time>2026-05-06T18:57:48Z</time></trkpt>
<trkpt lat="50.077650" lon="4.607572"><time>2026-05-06T19:07:48Z</time></trkpt>
<trkpt lat="50.077864" lon="4.608244"><time>2026-05-06T19:17:48Z</time></trkpt>
<trkpt lat="50.077953" lon="4.608580"><time>2026-05-06T19:27:48Z</time></trkpt>
<trkpt lat="50.078419" lon="4.609308"><time>2026-05-06T19:37:48Z</time></trkpt>
</trkseg>
</trk>
<trk>
<name>nvvov3</name>
<cmt>r</cmt>
<desc>Olloy-sur-Viroin Chemin n°3 Rue des Mines / Rue Autre Côté de l'Eau / Rue de la Goulette</desc>
<link href="https://chemins.be/olloy/chemin/3"/><trkseg>
<trkpt lat="50.074154" lon="4.606814"><time>2026-05-06T18:37:48Z</time></trkpt>
<trkpt lat="50.075387" lon="4.606052"><time>2026-05-06T18:47:48Z</time></trkpt>
<trkpt lat="50.075756" lon="4.605802"><time>2026-05-06T18:57:48Z</time></trkpt>
<trkpt lat="50.075685" lon="4.605411"><time>2026-05-06T19:07:48Z</time></trkpt>
<trkpt lat="50.075237" lon="4.604822"><time>2026-05-06T19:17:48Z</time></trkpt>
<trkpt lat="50.074809" lon="4.603227"><time>2026-05-06T19:27:48Z</time></trkpt>
<trkpt lat="50.074721" lon="4.601956"><time>2026-05-06T19:37:48Z</time></trkpt>
<trkpt lat="50.074920" lon="4.601440"><time>2026-05-06T19:47:48Z</time></trkpt>
<trkpt lat="50.075551" lon="4.600563"><time>2026-05-06T19:57:48Z</time></trkpt>
<trkpt lat="50.075669" lon="4.600144"><time>2026-05-06T20:07:48Z</time></trkpt>
<trkpt lat="50.075844" lon="4.598175"><time>2026-05-06T20:17:48Z</time></trkpt>
<trkpt lat="50.075934" lon="4.598176"><time>2026-05-06T20:27:48Z</time></trkpt>
<trkpt lat="50.076101" lon="4.599937"><time>2026-05-06T20:37:48Z</time></trkpt>
<trkpt lat="50.076662" lon="4.602356"><time>2026-05-06T20:47:48Z</time></trkpt>
<trkpt lat="50.077109" lon="4.603783"><time>2026-05-06T20:57:48Z</time></trkpt>
<trkpt lat="50.077502" lon="4.605015"><time>2026-05-06T21:07:48Z</time></trkpt>
<trkpt lat="50.077975" lon="4.606736"><time>2026-05-06T21:17:48Z</time></trkpt>
<trkpt lat="50.078419" lon="4.609295"><time>2026-05-06T21:27:48Z</time></trkpt>
<trkpt lat="50.078607" lon="4.609966"><time>2026-05-06T21:37:48Z</time></trkpt>
<trkpt lat="50.079366" lon="4.612108"><time>2026-05-06T21:47:48Z</time></trkpt>
<trkpt lat="50.080458" lon="4.614586"><time>2026-05-06T21:57:48Z</time></trkpt>
</trkseg></trk>
<trk>
<name>nvvov3</name>
<cmt>v</cmt>
<desc>Olloy-sur-Viroin Chemin n°3 Rue des Mines / Rue Autre Côté de l'Eau / Rue de la Goulette</desc>
<link href="https://chemins.be/olloy/chemin/3"/><trkseg>
<trkpt lat="50.080458" lon="4.614586"><time>2026-05-06T21:57:48Z</time></trkpt>
<trkpt lat="50.081439" lon="4.618098"><time>2026-05-06T22:07:48Z</time></trkpt>
<trkpt lat="50.082073" lon="4.620127"><time>2026-05-06T22:17:48Z</time></trkpt>
<trkpt lat="50.082349" lon="4.621400"><time>2026-05-06T22:27:48Z</time></trkpt>
<trkpt lat="50.082821" lon="4.623345"><time>2026-05-06T22:37:48Z</time></trkpt>
<trkpt lat="50.083706" lon="4.625669"><time>2026-05-06T22:47:48Z</time></trkpt>
<trkpt lat="50.084181" lon="4.626398"><time>2026-05-06T22:57:48Z</time></trkpt>
<trkpt lat="50.084340" lon="4.627713"><time>2026-05-06T23:07:48Z</time></trkpt>
<trkpt lat="50.084184" lon="4.629165"><time>2026-05-06T23:17:48Z</time></trkpt>
</trkseg>
</trk>
<trk>
<name>nvvov30</name>
<cmt>d</cmt>
<desc>Olloy-sur-Viroin Chemin n°30 </desc>
<link href="https://chemins.be/olloy/chemin/30"/><trkseg>
<trkpt lat="50.070409" lon="4.604700"><time>2026-05-06T18:37:48Z</time></trkpt>
<trkpt lat="50.069960" lon="4.604307"><time>2026-05-06T18:47:48Z</time></trkpt>
</trkseg>
</trk>
<trk>
<name>nvvov31</name>
<cmt>d</cmt>
<desc>Olloy-sur-Viroin Chemin n°31 </desc>
<link href="https://chemins.be/olloy/chemin/31"/><trkseg>
<trkpt lat="50.071817" lon="4.606356"><time>2026-05-06T18:37:48Z</time></trkpt>
<trkpt lat="50.071586" lon="4.605181"><time>2026-05-06T18:47:48Z</time></trkpt>
<trkpt lat="50.071524" lon="4.604524"><time>2026-05-06T18:57:48Z</time></trkpt>
</trkseg>
</trk>
<trk>
<name>nvvov33</name>
<cmt>d</cmt>
<desc>Olloy-sur-Viroin Chemin n°33 </desc>
<link href="https://chemins.be/olloy/chemin/33"/><trkseg>
<trkpt lat="50.066917" lon="4.602155"><time>2026-05-06T18:37:48Z</time></trkpt>
<trkpt lat="50.066268" lon="4.602738"><time>2026-05-06T18:47:48Z</time></trkpt>
</trkseg>
</trk>
<trk>
<name>nvvov34</name>
<cmt>v</cmt>
<desc>Olloy-sur-Viroin Chemin n°34 </desc>
<link href="https://chemins.be/olloy/chemin/34"/><trkseg>
<trkpt lat="50.069354" lon="4.606106"><time>2026-05-06T18:37:48Z</time></trkpt>
<trkpt lat="50.068942" lon="4.605238"><time>2026-05-06T18:47:48Z</time></trkpt>
<trkpt lat="50.068646" lon="4.605069"><time>2026-05-06T18:57:48Z</time></trkpt>
</trkseg>
</trk>
<trk>
<name>nvvov35</name>
<cmt>v</cmt>
<desc>Olloy-sur-Viroin Chemin n°35 </desc>
<link href="https://chemins.be/olloy/chemin/35"/><trkseg>
<trkpt lat="50.073862" lon="4.608755"><time>2026-05-06T18:37:48Z</time></trkpt>
<trkpt lat="50.073197" lon="4.608821"><time>2026-05-06T18:47:48Z</time></trkpt>
<trkpt lat="50.073178" lon="4.609100"><time>2026-05-06T18:57:48Z</time></trkpt>
<trkpt lat="50.072522" lon="4.608888"><time>2026-05-06T19:07:48Z</time></trkpt>
</trkseg>
</trk>
<trk>
<name>nvvov36</name>
<cmt>v</cmt>
<desc>Olloy-sur-Viroin Chemin n°36 </desc>
<link href="https://chemins.be/olloy/chemin/36"/><trkseg>
<trkpt lat="50.071387" lon="4.610111"><time>2026-05-06T18:37:48Z</time></trkpt>
<trkpt lat="50.071765" lon="4.609904"><time>2026-05-06T18:47:48Z</time></trkpt>
</trkseg>
</trk>
<trk>
<name>nvvov37</name>
<cmt>v</cmt>
<desc>Olloy-sur-Viroin Chemin n°37 </desc>
<link href="https://chemins.be/olloy/chemin/37"/><trkseg>
<trkpt lat="50.070878" lon="4.608223"><time>2026-05-06T18:37:48Z</time></trkpt>
<trkpt lat="50.071354" lon="4.608449"><time>2026-05-06T18:47:48Z</time></trkpt>
<trkpt lat="50.071390" lon="4.608575"><time>2026-05-06T18:57:48Z</time></trkpt>
<trkpt lat="50.071678" lon="4.608674"><time>2026-05-06T19:07:48Z</time></trkpt>
</trkseg>
</trk>
<trk>
<name>nvvov4</name>
<cmt>r</cmt>
<desc>Olloy-sur-Viroin Chemin n°4 Unnamed Road</desc>
<link href="https://chemins.be/olloy/chemin/4"/><trkseg>
<trkpt lat="50.080494" lon="4.614642"><time>2026-05-06T18:37:48Z</time></trkpt>
<trkpt lat="50.081425" lon="4.616366"><time>2026-05-06T18:47:48Z</time></trkpt>
<trkpt lat="50.082349" lon="4.617348"><time>2026-05-06T18:57:48Z</time></trkpt>
<trkpt lat="50.082725" lon="4.618217"><time>2026-05-06T19:07:48Z</time></trkpt>
<trkpt lat="50.083569" lon="4.618459"><time>2026-05-06T19:17:48Z</time></trkpt>
<trkpt lat="50.084395" lon="4.618938"><time>2026-05-06T19:27:48Z</time></trkpt>
</trkseg></trk>
<trk>
<name>nvvov4</name>
<cmt>s</cmt>
<desc>Olloy-sur-Viroin Chemin n°4 Unnamed Road</desc>
<link href="https://chemins.be/olloy/chemin/4"/><trkseg>
<trkpt lat="50.084395" lon="4.618938"><time>2026-05-06T19:27:48Z</time></trkpt>
<trkpt lat="50.086182" lon="4.620303"><time>2026-05-06T19:37:48Z</time></trkpt>
<trkpt lat="50.087328" lon="4.622097"><time>2026-05-06T19:47:48Z</time></trkpt>
</trkseg></trk>
<trk>
<name>nvvov4</name>
<cmt>v</cmt>
<desc>Olloy-sur-Viroin Chemin n°4 Unnamed Road</desc>
<link href="https://chemins.be/olloy/chemin/4"/><trkseg>
<trkpt lat="50.087328" lon="4.622097"><time>2026-05-06T19:47:48Z</time></trkpt>
<trkpt lat="50.089587" lon="4.625100"><time>2026-05-06T19:57:48Z</time></trkpt>
<trkpt lat="50.090223" lon="4.626333"><time>2026-05-06T20:07:48Z</time></trkpt>
<trkpt lat="50.090662" lon="4.626978"><time>2026-05-06T20:17:48Z</time></trkpt>
</trkseg></trk>
<trk>
<name>nvvov4</name>
<cmt>d</cmt>
<desc>Olloy-sur-Viroin Chemin n°4 Unnamed Road</desc>
<link href="https://chemins.be/olloy/chemin/4"/><trkseg>
<trkpt lat="50.090662" lon="4.626978"><time>2026-05-06T20:17:48Z</time></trkpt>
<trkpt lat="50.091623" lon="4.627599"><time>2026-05-06T20:27:48Z</time></trkpt>
</trkseg>
</trk>
<trk>
<name>nvvov43</name>
<cmt>v</cmt>
<desc>Olloy-sur-Viroin Sentier n°43 </desc>
<link href="https://chemins.be/olloy/sentier/43"/><trkseg>
<trkpt lat="50.074870" lon="4.608257"><time>2026-05-06T18:37:48Z</time></trkpt>
<trkpt lat="50.075129" lon="4.609180"><time>2026-05-06T18:47:48Z</time></trkpt>
</trkseg>
</trk>
<trk>
<name>nvvov47</name>
<cmt>v</cmt>
<desc>Olloy-sur-Viroin Sentier n°47 Chemin des Nuées</desc>
<link href="https://chemins.be/olloy/sentier/47"/><trkseg>
<trkpt lat="50.069489" lon="4.606162"><time>2026-05-06T18:37:48Z</time></trkpt>
<trkpt lat="50.068859" lon="4.606508"><time>2026-05-06T18:47:48Z</time></trkpt>
<trkpt lat="50.068634" lon="4.606507"><time>2026-05-06T18:57:48Z</time></trkpt>
<trkpt lat="50.067727" lon="4.606028"><time>2026-05-06T19:07:48Z</time></trkpt>
<trkpt lat="50.067412" lon="4.606068"><time>2026-05-06T19:17:48Z</time></trkpt>
<trkpt lat="50.067519" lon="4.606488"><time>2026-05-06T19:27:48Z</time></trkpt>
</trkseg>
</trk>
<trk>
<name>nvvov48</name>
<cmt>v</cmt>
<desc>Olloy-sur-Viroin Sentier n°48 Chemin des Nuées</desc>
<link href="https://chemins.be/olloy/sentier/48"/><trkseg>
<trkpt lat="50.068858" lon="4.606802"><time>2026-05-06T18:37:48Z</time></trkpt>
<trkpt lat="50.068652" lon="4.606507"><time>2026-05-06T18:47:48Z</time></trkpt>
</trkseg>
</trk>
<trk>
<name>nvvov49</name>
<cmt>d</cmt>
<desc>Olloy-sur-Viroin Sentier n°49 Rue des Lavandières / Rue du Vignoble</desc>
<link href="https://chemins.be/olloy/sentier/49"/><trkseg>
<trkpt lat="50.076673" lon="4.614748"><time>2026-05-06T18:37:48Z</time></trkpt>
<trkpt lat="50.076553" lon="4.616047"><time>2026-05-06T18:47:48Z</time></trkpt>
<trkpt lat="50.076830" lon="4.616887"><time>2026-05-06T18:57:48Z</time></trkpt>
<trkpt lat="50.077168" lon="4.618243"><time>2026-05-06T19:07:48Z</time></trkpt>
<trkpt lat="50.077756" lon="4.620719"><time>2026-05-06T19:17:48Z</time></trkpt>
</trkseg></trk>
<trk>
<name>nvvov49</name>
<cmt>r</cmt>
<desc>Olloy-sur-Viroin Sentier n°49 Rue des Lavandières / Rue du Vignoble</desc>
<link href="https://chemins.be/olloy/sentier/49"/><trkseg>
<trkpt lat="50.077756" lon="4.620719"><time>2026-05-06T19:17:48Z</time></trkpt>
<trkpt lat="50.077972" lon="4.621028"><time>2026-05-06T19:27:48Z</time></trkpt>
<trkpt lat="50.078648" lon="4.624245"><time>2026-05-06T19:37:48Z</time></trkpt>
<trkpt lat="50.079208" lon="4.627070"><time>2026-05-06T19:47:48Z</time></trkpt>
<trkpt lat="50.079874" lon="4.630734"><time>2026-05-06T19:57:48Z</time></trkpt>
<trkpt lat="50.080026" lon="4.631252"><time>2026-05-06T20:07:48Z</time></trkpt>
</trkseg>
</trk>
<trk>
<name>nvvov5</name>
<cmt>v</cmt>
<desc>Olloy-sur-Viroin Chemin n°5 </desc>
<link href="https://chemins.be/olloy/chemin/5"/><trkseg>
<trkpt lat="50.083724" lon="4.625753"><time>2026-05-06T18:37:48Z</time></trkpt>
<trkpt lat="50.083676" lon="4.627318"><time>2026-05-06T18:47:48Z</time></trkpt>
<trkpt lat="50.082925" lon="4.629214"><time>2026-05-06T18:57:48Z</time></trkpt>
</trkseg>
</trk>
<trk>
<name>nvvov50</name>
<cmt>r</cmt>
<desc>Olloy-sur-Viroin Sentier n°50 </desc>
<link href="https://chemins.be/olloy/sentier/50"/><trkseg>
<trkpt lat="50.071279" lon="4.610236"><time>2026-05-06T18:37:48Z</time></trkpt>
<trkpt lat="50.071170" lon="4.610585"><time>2026-05-06T18:47:48Z</time></trkpt>
<trkpt lat="50.070466" lon="4.611894"><time>2026-05-06T18:57:48Z</time></trkpt>
</trkseg>
</trk>
<trk>
<name>nvvov51</name>
<cmt>r</cmt>
<desc>Olloy-sur-Viroin Sentier n°51 Rue du Nestry</desc>
<link href="https://chemins.be/olloy/sentier/51"/><trkseg>
<trkpt lat="50.070011" lon="4.610020"><time>2026-05-06T18:37:48Z</time></trkpt>
<trkpt lat="50.069399" lon="4.610730"><time>2026-05-06T18:47:48Z</time></trkpt>
</trkseg>
</trk>
<trk>
<name>nvvov52</name>
<cmt>v</cmt>
<desc>Olloy-sur-Viroin Sentier n°52 Rue de la Bossette</desc>
<link href="https://chemins.be/olloy/sentier/52"/><trkseg>
<trkpt lat="50.069987" lon="4.612982"><time>2026-05-06T18:37:48Z</time></trkpt>
<trkpt lat="50.069735" lon="4.613190"><time>2026-05-06T18:47:48Z</time></trkpt>
</trkseg>
</trk>
<trk>
<name>nvvov53</name>
<cmt>v</cmt>
<desc>Olloy-sur-Viroin Sentier n°53 </desc>
<link href="https://chemins.be/olloy/sentier/53"/><trkseg>
<trkpt lat="50.071550" lon="4.586742"><time>2026-05-06T18:37:48Z</time></trkpt>
<trkpt lat="50.071678" lon="4.585709"><time>2026-05-06T18:47:48Z</time></trkpt>
<trkpt lat="50.072066" lon="4.585026"><time>2026-05-06T18:57:48Z</time></trkpt>
</trkseg>
</trk>
<trk>
<name>nvvov54</name>
<cmt>r</cmt>
<desc>Olloy-sur-Viroin Sentier n°54 Rue de la Champagne</desc>
<link href="https://chemins.be/olloy/sentier/54"/><trkseg>
<trkpt lat="50.072129" lon="4.603326"><time>2026-05-06T18:37:48Z</time></trkpt>
<trkpt lat="50.072247" lon="4.602754"><time>2026-05-06T18:47:48Z</time></trkpt>
<trkpt lat="50.072222" lon="4.601790"><time>2026-05-06T18:57:48Z</time></trkpt>
</trkseg></trk>
<trk>
<name>nvvov54</name>
<cmt>b</cmt>
<desc>Olloy-sur-Viroin Sentier n°54 Rue de la Champagne</desc>
<link href="https://chemins.be/olloy/sentier/54"/><trkseg>
<trkpt lat="50.072222" lon="4.601790"><time>2026-05-06T18:57:48Z</time></trkpt>
<trkpt lat="50.072181" lon="4.599890"><time>2026-05-06T19:07:48Z</time></trkpt>
<trkpt lat="50.072201" lon="4.598814"><time>2026-05-06T19:17:48Z</time></trkpt>
</trkseg></trk>
<trk>
<name>nvvov54</name>
<cmt>d</cmt>
<desc>Olloy-sur-Viroin Sentier n°54 Rue de la Champagne</desc>
<link href="https://chemins.be/olloy/sentier/54"/><trkseg>
<trkpt lat="50.072201" lon="4.598814"><time>2026-05-06T19:17:48Z</time></trkpt>
<trkpt lat="50.072239" lon="4.597753"><time>2026-05-06T19:27:48Z</time></trkpt>
<trkpt lat="50.072206" lon="4.596467"><time>2026-05-06T19:37:48Z</time></trkpt>
<trkpt lat="50.072190" lon="4.595308"><time>2026-05-06T19:47:48Z</time></trkpt>
<trkpt lat="50.072554" lon="4.593214"><time>2026-05-06T19:57:48Z</time></trkpt>
<trkpt lat="50.072583" lon="4.592334"><time>2026-05-06T20:07:48Z</time></trkpt>
</trkseg></trk>
<trk>
<name>nvvov54</name>
<cmt>b</cmt>
<desc>Olloy-sur-Viroin Sentier n°54 Rue de la Champagne</desc>
<link href="https://chemins.be/olloy/sentier/54"/><trkseg>
<trkpt lat="50.072583" lon="4.592334"><time>2026-05-06T20:07:48Z</time></trkpt>
<trkpt lat="50.072638" lon="4.591636"><time>2026-05-06T20:17:48Z</time></trkpt>
</trkseg>
</trk>
<trk>
<name>nvvov55</name>
<cmt>d</cmt>
<desc>Olloy-sur-Viroin Sentier n°55 </desc>
<link href="https://chemins.be/olloy/sentier/55"/><trkseg>
<trkpt lat="50.072425" lon="4.590168"><time>2026-05-06T18:37:48Z</time></trkpt>
<trkpt lat="50.072500" lon="4.588716"><time>2026-05-06T18:47:48Z</time></trkpt>
<trkpt lat="50.072563" lon="4.588353"><time>2026-05-06T18:57:48Z</time></trkpt>
<trkpt lat="50.072663" lon="4.587976"><time>2026-05-06T19:07:48Z</time></trkpt>
<trkpt lat="50.072592" lon="4.587152"><time>2026-05-06T19:17:48Z</time></trkpt>
<trkpt lat="50.072918" lon="4.586161"><time>2026-05-06T19:27:48Z</time></trkpt>
<trkpt lat="50.073037" lon="4.585170"><time>2026-05-06T19:37:48Z</time></trkpt>
<trkpt lat="50.073508" lon="4.583286"><time>2026-05-06T19:47:48Z</time></trkpt>
<trkpt lat="50.074582" lon="4.581112"><time>2026-05-06T19:57:48Z</time></trkpt>
</trkseg>
</trk>
<trk>
<name>nvvov56</name>
<cmt>v</cmt>
<desc>Olloy-sur-Viroin Sentier n°56 Sentier de Vierves à Dourbes</desc>
<link href="https://chemins.be/olloy/sentier/56"/><trkseg>
<trkpt lat="50.083805" lon="4.625740"><time>2026-05-06T18:37:48Z</time></trkpt>
<trkpt lat="50.084518" lon="4.624388"><time>2026-05-06T18:47:48Z</time></trkpt>
</trkseg></trk>
<trk>
<name>nvvov56</name>
<cmt>s</cmt>
<desc>Olloy-sur-Viroin Sentier n°56 Sentier de Vierves à Dourbes</desc>
<link href="https://chemins.be/olloy/sentier/56"/><trkseg>
<trkpt lat="50.084518" lon="4.624388"><time>2026-05-06T18:47:48Z</time></trkpt>
<trkpt lat="50.085403" lon="4.622660"><time>2026-05-06T18:57:48Z</time></trkpt>
<trkpt lat="50.086199" lon="4.620415"><time>2026-05-06T19:07:48Z</time></trkpt>
<trkpt lat="50.087005" lon="4.617946"><time>2026-05-06T19:17:48Z</time></trkpt>
<trkpt lat="50.087659" lon="4.615015"><time>2026-05-06T19:27:48Z</time></trkpt>
</trkseg>
</trk>
<trk>
<name>nvvov57</name>
<cmt>q</cmt>
<desc>Olloy-sur-Viroin Sentier n°57 </desc>
<link href="https://chemins.be/olloy/sentier/57"/><trkseg>
<trkpt lat="50.090744" lon="4.626713"><time>2026-05-06T18:37:48Z</time></trkpt>
<trkpt lat="50.091271" lon="4.624117"><time>2026-05-06T18:47:48Z</time></trkpt>
<trkpt lat="50.091814" lon="4.622303"><time>2026-05-06T18:57:48Z</time></trkpt>
</trkseg>
</trk>
<trk>
<name>nvvov58</name>
<cmt>v</cmt>
<desc>Olloy-sur-Viroin Sentier n°58 </desc>
<link href="https://chemins.be/olloy/sentier/58"/><trkseg>
<trkpt lat="50.075560" lon="4.605159"><time>2026-05-06T18:37:48Z</time></trkpt>
<trkpt lat="50.075713" lon="4.604978"><time>2026-05-06T18:47:48Z</time></trkpt>
<trkpt lat="50.075714" lon="4.604573"><time>2026-05-06T18:57:48Z</time></trkpt>
<trkpt lat="50.075858" lon="4.604336"><time>2026-05-06T19:07:48Z</time></trkpt>
<trkpt lat="50.076875" lon="4.604132"><time>2026-05-06T19:17:48Z</time></trkpt>
<trkpt lat="50.077181" lon="4.603979"><time>2026-05-06T19:27:48Z</time></trkpt>
<trkpt lat="50.077820" lon="4.603633"><time>2026-05-06T19:37:48Z</time></trkpt>
<trkpt lat="50.078134" lon="4.603551"><time>2026-05-06T19:47:48Z</time></trkpt>
<trkpt lat="50.078324" lon="4.603342"><time>2026-05-06T19:57:48Z</time></trkpt>
<trkpt lat="50.079029" lon="4.601292"><time>2026-05-06T20:07:48Z</time></trkpt>
<trkpt lat="50.079553" lon="4.600247"><time>2026-05-06T20:17:48Z</time></trkpt>
<trkpt lat="50.079995" lon="4.599369"><time>2026-05-06T20:27:48Z</time></trkpt>
</trkseg>
</trk>
<trk>
<name>nvvov59</name>
<cmt>v</cmt>
<desc>Olloy-sur-Viroin Sentier n°59 </desc>
<link href="https://chemins.be/olloy/sentier/59"/><trkseg>
<trkpt lat="50.048600" lon="4.618889"><time>2026-05-06T18:37:48Z</time></trkpt>
<trkpt lat="50.048143" lon="4.619725"><time>2026-05-06T18:47:48Z</time></trkpt>
<trkpt lat="50.047502" lon="4.620978"><time>2026-05-06T18:57:48Z</time></trkpt>
<trkpt lat="50.047159" lon="4.621842"><time>2026-05-06T19:07:48Z</time></trkpt>
<trkpt lat="50.045834" lon="4.623050"><time>2026-05-06T19:17:48Z</time></trkpt>
<trkpt lat="50.044799" lon="4.623726"><time>2026-05-06T19:27:48Z</time></trkpt>
<trkpt lat="50.043986" lon="4.625342"><time>2026-05-06T19:37:48Z</time></trkpt>
<trkpt lat="50.042047" lon="4.623965"><time>2026-05-06T19:47:48Z</time></trkpt>
<trkpt lat="50.040424" lon="4.623998"><time>2026-05-06T19:57:48Z</time></trkpt>
</trkseg>
</trk>
<trk>
<name>nvvov6</name>
<cmt>v</cmt>
<desc>Olloy-sur-Viroin Chemin n°6 </desc>
<link href="https://chemins.be/olloy/chemin/6"/><trkseg>
<trkpt lat="50.074013" lon="4.609817"><time>2026-05-06T18:37:48Z</time></trkpt>
<trkpt lat="50.074380" lon="4.610657"><time>2026-05-06T18:47:48Z</time></trkpt>
<trkpt lat="50.074645" lon="4.612489"><time>2026-05-06T18:57:48Z</time></trkpt>
<trkpt lat="50.074615" lon="4.613885"><time>2026-05-06T19:07:48Z</time></trkpt>
<trkpt lat="50.074452" lon="4.614751"><time>2026-05-06T19:17:48Z</time></trkpt>
<trkpt lat="50.073983" lon="4.615237"><time>2026-05-06T19:27:48Z</time></trkpt>
<trkpt lat="50.073256" lon="4.614717"><time>2026-05-06T19:37:48Z</time></trkpt>
<trkpt lat="50.071962" lon="4.614472"><time>2026-05-06T19:47:48Z</time></trkpt>
<trkpt lat="50.071126" lon="4.614356"><time>2026-05-06T19:57:48Z</time></trkpt>
<trkpt lat="50.070551" lon="4.614423"><time>2026-05-06T20:07:48Z</time></trkpt>
<trkpt lat="50.070019" lon="4.614854"><time>2026-05-06T20:17:48Z</time></trkpt>
<trkpt lat="50.069092" lon="4.615603"><time>2026-05-06T20:27:48Z</time></trkpt>
<trkpt lat="50.068615" lon="4.615656"><time>2026-05-06T20:37:48Z</time></trkpt>
<trkpt lat="50.068273" lon="4.616077"><time>2026-05-06T20:47:48Z</time></trkpt>
<trkpt lat="50.067905" lon="4.617107"><time>2026-05-06T20:57:48Z</time></trkpt>
<trkpt lat="50.067384" lon="4.619379"><time>2026-05-06T21:07:48Z</time></trkpt>
<trkpt lat="50.066939" lon="4.621277"><time>2026-05-06T21:17:48Z</time></trkpt>
<trkpt lat="50.066747" lon="4.622994"><time>2026-05-06T21:27:48Z</time></trkpt>
<trkpt lat="50.066753" lon="4.624419"><time>2026-05-06T21:37:48Z</time></trkpt>
<trkpt lat="50.066696" lon="4.625787"><time>2026-05-06T21:47:48Z</time></trkpt>
<trkpt lat="50.066010" lon="4.626915"><time>2026-05-06T21:57:48Z</time></trkpt>
<trkpt lat="50.065414" lon="4.627945"><time>2026-05-06T22:07:48Z</time></trkpt>
<trkpt lat="50.064163" lon="4.628748"><time>2026-05-06T22:17:48Z</time></trkpt>
<trkpt lat="50.063388" lon="4.629191"><time>2026-05-06T22:27:48Z</time></trkpt>
<trkpt lat="50.062141" lon="4.632201"><time>2026-05-06T22:37:48Z</time></trkpt>
</trkseg>
</trk>
<trk>
<name>nvvov60</name>
<cmt>v</cmt>
<desc>Olloy-sur-Viroin Sentier n°60 </desc>
<link href="https://chemins.be/olloy/sentier/60"/><trkseg>
<trkpt lat="50.071792" lon="4.609890"><time>2026-05-06T18:37:48Z</time></trkpt>
<trkpt lat="50.072260" lon="4.609585"><time>2026-05-06T18:47:48Z</time></trkpt>
<trkpt lat="50.072361" lon="4.608789"><time>2026-05-06T18:57:48Z</time></trkpt>
</trkseg>
</trk>
<trk>
<name>nvvov61</name>
<cmt>v</cmt>
<desc>Olloy-sur-Viroin Sentier n°61 </desc>
<link href="https://chemins.be/olloy/sentier/61"/><trkseg>
<trkpt lat="50.071678" lon="4.608674"><time>2026-05-06T18:37:48Z</time></trkpt>
<trkpt lat="50.071687" lon="4.608548"><time>2026-05-06T18:47:48Z</time></trkpt>
<trkpt lat="50.072352" lon="4.608775"><time>2026-05-06T18:57:48Z</time></trkpt>
</trkseg>
</trk>
<trk>
<name>nvvov62</name>
<cmt>v</cmt>
<desc>Olloy-sur-Viroin Sentier n°62 Rue des Carrières / ?</desc>
<link href="https://chemins.be/olloy/sentier/62"/><trkseg>
<trkpt lat="50.068673" lon="4.604887"><time>2026-05-06T18:37:48Z</time></trkpt>
<trkpt lat="50.067408" lon="4.603652"><time>2026-05-06T18:47:48Z</time></trkpt>
<trkpt lat="50.066944" lon="4.602169"><time>2026-05-06T18:57:48Z</time></trkpt>
</trkseg></trk>
<trk>
<name>nvvov62</name>
<cmt>d</cmt>
<desc>Olloy-sur-Viroin Sentier n°62 Rue des Carrières / ?</desc>
<link href="https://chemins.be/olloy/sentier/62"/><trkseg>
<trkpt lat="50.066944" lon="4.602169"><time>2026-05-06T18:57:48Z</time></trkpt>
<trkpt lat="50.066962" lon="4.601190"><time>2026-05-06T19:07:48Z</time></trkpt>
</trkseg></trk>
<trk>
<name>nvvov62</name>
<cmt>v</cmt>
<desc>Olloy-sur-Viroin Sentier n°62 Rue des Carrières / ?</desc>
<link href="https://chemins.be/olloy/sentier/62"/><trkseg>
<trkpt lat="50.066962" lon="4.601190"><time>2026-05-06T19:07:48Z</time></trkpt>
<trkpt lat="50.067051" lon="4.601068"><time>2026-05-06T19:17:48Z</time></trkpt>
<trkpt lat="50.066953" lon="4.600320"><time>2026-05-06T19:27:48Z</time></trkpt>
<trkpt lat="50.066870" lon="4.599945"><time>2026-05-06T19:37:48Z</time></trkpt>
<trkpt lat="50.066608" lon="4.599080"><time>2026-05-06T19:47:48Z</time></trkpt>
<trkpt lat="50.066206" lon="4.598171"><time>2026-05-06T19:57:48Z</time></trkpt>
<trkpt lat="50.065587" lon="4.597246"><time>2026-05-06T20:07:48Z</time></trkpt>
<trkpt lat="50.064779" lon="4.596851"><time>2026-05-06T20:17:48Z</time></trkpt>
</trkseg></trk>
<trk>
<name>nvvov62</name>
<cmt>d</cmt>
<desc>Olloy-sur-Viroin Sentier n°62 Rue des Carrières / ?</desc>
<link href="https://chemins.be/olloy/sentier/62"/><trkseg>
<trkpt lat="50.064779" lon="4.596851"><time>2026-05-06T20:17:48Z</time></trkpt>
<trkpt lat="50.063791" lon="4.596148"><time>2026-05-06T20:27:48Z</time></trkpt>
<trkpt lat="50.062663" lon="4.594019"><time>2026-05-06T20:37:48Z</time></trkpt>
<trkpt lat="50.061965" lon="4.592256"><time>2026-05-06T20:47:48Z</time></trkpt>
<trkpt lat="50.061495" lon="4.588483"><time>2026-05-06T20:57:48Z</time></trkpt>
</trkseg>
</trk>
<trk>
<name>nvvov63</name>
<cmt>d</cmt>
<desc>Olloy-sur-Viroin Sentier n°63 Rue des Carrières</desc>
<link href="https://chemins.be/olloy/sentier/63"/><trkseg>
<trkpt lat="50.066258" lon="4.602736"><time>2026-05-06T18:37:48Z</time></trkpt>
<trkpt lat="50.066128" lon="4.602636"><time>2026-05-06T18:47:48Z</time></trkpt>
<trkpt lat="50.065248" lon="4.600476"><time>2026-05-06T18:57:48Z</time></trkpt>
<trkpt lat="50.064668" lon="4.599966"><time>2026-05-06T19:07:48Z</time></trkpt>
<trkpt lat="50.064188" lon="4.599506"><time>2026-05-06T19:17:48Z</time></trkpt>
<trkpt lat="50.063678" lon="4.599516"><time>2026-05-06T19:27:48Z</time></trkpt>
<trkpt lat="50.062748" lon="4.599286"><time>2026-05-06T19:37:48Z</time></trkpt>
<trkpt lat="50.062408" lon="4.599336"><time>2026-05-06T19:47:48Z</time></trkpt>
<trkpt lat="50.061588" lon="4.599266"><time>2026-05-06T19:57:48Z</time></trkpt>
</trkseg></trk>
<trk>
<name>nvvov63</name>
<cmt>v</cmt>
<desc>Olloy-sur-Viroin Sentier n°63 Rue des Carrières</desc>
<link href="https://chemins.be/olloy/sentier/63"/><trkseg>
<trkpt lat="50.061588" lon="4.599266"><time>2026-05-06T19:57:48Z</time></trkpt>
<trkpt lat="50.061578" lon="4.599276"><time>2026-05-06T20:07:48Z</time></trkpt>
<trkpt lat="50.061178" lon="4.599496"><time>2026-05-06T20:17:48Z</time></trkpt>
<trkpt lat="50.059288" lon="4.598676"><time>2026-05-06T20:27:48Z</time></trkpt>
<trkpt lat="50.058688" lon="4.597906"><time>2026-05-06T20:37:48Z</time></trkpt>
<trkpt lat="50.058398" lon="4.597026"><time>2026-05-06T20:47:48Z</time></trkpt>
<trkpt lat="50.058048" lon="4.595686"><time>2026-05-06T20:57:48Z</time></trkpt>
<trkpt lat="50.057654" lon="4.594201"><time>2026-05-06T21:07:48Z</time></trkpt>
<trkpt lat="50.057192" lon="4.593693"><time>2026-05-06T21:17:48Z</time></trkpt>
<trkpt lat="50.056899" lon="4.593296"><time>2026-05-06T21:27:48Z</time></trkpt>
</trkseg>
</trk>
<trk>
<name>nvvov64</name>
<cmt>v</cmt>
<desc>Olloy-sur-Viroin Sentier n°64 Rue des Carrières / ?</desc>
<link href="https://chemins.be/olloy/sentier/64"/><trkseg>
<trkpt lat="50.066972" lon="4.601624"><time>2026-05-06T18:37:48Z</time></trkpt>
<trkpt lat="50.066767" lon="4.600799"><time>2026-05-06T18:47:48Z</time></trkpt>
<trkpt lat="50.066077" lon="4.599357"><time>2026-05-06T18:57:48Z</time></trkpt>
<trkpt lat="50.065458" lon="4.598879"><time>2026-05-06T19:07:48Z</time></trkpt>
<trkpt lat="50.064370" lon="4.598720"><time>2026-05-06T19:17:48Z</time></trkpt>
<trkpt lat="50.063795" lon="4.598662"><time>2026-05-06T19:27:48Z</time></trkpt>
<trkpt lat="50.063130" lon="4.598575"><time>2026-05-06T19:37:48Z</time></trkpt>
<trkpt lat="50.062707" lon="4.598643"><time>2026-05-06T19:47:48Z</time></trkpt>
<trkpt lat="50.061970" lon="4.598751"><time>2026-05-06T19:57:48Z</time></trkpt>
</trkseg></trk>
<trk>
<name>nvvov64</name>
<cmt>b</cmt>
<desc>Olloy-sur-Viroin Sentier n°64 Rue des Carrières / ?</desc>
<link href="https://chemins.be/olloy/sentier/64"/><trkseg>
<trkpt lat="50.061970" lon="4.598751"><time>2026-05-06T19:57:48Z</time></trkpt>
<trkpt lat="50.060865" lon="4.598354"><time>2026-05-06T20:07:48Z</time></trkpt>
<trkpt lat="50.059456" lon="4.597119"><time>2026-05-06T20:17:48Z</time></trkpt>
<trkpt lat="50.059124" lon="4.596698"><time>2026-05-06T20:27:48Z</time></trkpt>
<trkpt lat="50.058721" lon="4.595674"><time>2026-05-06T20:37:48Z</time></trkpt>
<trkpt lat="50.058032" lon="4.593521"><time>2026-05-06T20:47:48Z</time></trkpt>
<trkpt lat="50.057541" lon="4.592152"><time>2026-05-06T20:57:48Z</time></trkpt>
<trkpt lat="50.057003" lon="4.591718"><time>2026-05-06T21:07:48Z</time></trkpt>
</trkseg></trk>
<trk>
<name>nvvov64</name>
<cmt>d</cmt>
<desc>Olloy-sur-Viroin Sentier n°64 Rue des Carrières / ?</desc>
<link href="https://chemins.be/olloy/sentier/64"/><trkseg>
<trkpt lat="50.057003" lon="4.591718"><time>2026-05-06T21:07:48Z</time></trkpt>
<trkpt lat="50.056200" lon="4.591060"><time>2026-05-06T21:17:48Z</time></trkpt>
<trkpt lat="50.054874" lon="4.590785"><time>2026-05-06T21:27:48Z</time></trkpt>
<trkpt lat="50.052024" lon="4.590967"><time>2026-05-06T21:37:48Z</time></trkpt>
</trkseg>
</trk>
<trk>
<name>nvvov65</name>
<cmt>s</cmt>
<desc>Olloy-sur-Viroin Sentier n°65 </desc>
<link href="https://chemins.be/olloy/sentier/65"/><trkseg>
<trkpt lat="50.065400" lon="4.609550"><time>2026-05-06T18:37:48Z</time></trkpt>
<trkpt lat="50.065174" lon="4.610066"><time>2026-05-06T18:47:48Z</time></trkpt>
<trkpt lat="50.064308" lon="4.611793"><time>2026-05-06T18:57:48Z</time></trkpt>
<trkpt lat="50.063641" lon="4.612530"><time>2026-05-06T19:07:48Z</time></trkpt>
<trkpt lat="50.062936" lon="4.614105"><time>2026-05-06T19:17:48Z</time></trkpt>
</trkseg>
</trk>
<trk>
<name>nvvov66</name>
<cmt>s</cmt>
<desc>Olloy-sur-Viroin Sentier n°66 </desc>
<link href="https://chemins.be/olloy/sentier/66"/><trkseg>
<trkpt lat="50.062880" lon="4.606590"><time>2026-05-06T18:37:48Z</time></trkpt>
<trkpt lat="50.062783" lon="4.605724"><time>2026-05-06T18:47:48Z</time></trkpt>
<trkpt lat="50.062651" lon="4.604313"><time>2026-05-06T18:57:48Z</time></trkpt>
</trkseg>
</trk>
<trk>
<name>nvvov67</name>
<cmt>v</cmt>
<desc>Olloy-sur-Viroin Sentier n°67 </desc>
<link href="https://chemins.be/olloy/sentier/67"/><trkseg>
<trkpt lat="50.070976" lon="4.600023"><time>2026-05-06T18:37:48Z</time></trkpt>
<trkpt lat="50.070923" lon="4.599367"><time>2026-05-06T18:47:48Z</time></trkpt>
<trkpt lat="50.070835" lon="4.598766"><time>2026-05-06T18:57:48Z</time></trkpt>
</trkseg></trk>
<trk>
<name>nvvov67</name>
<cmt>d</cmt>
<desc>Olloy-sur-Viroin Sentier n°67 </desc>
<link href="https://chemins.be/olloy/sentier/67"/><trkseg>
<trkpt lat="50.070835" lon="4.598766"><time>2026-05-06T18:57:48Z</time></trkpt>
<trkpt lat="50.070595" lon="4.597018"><time>2026-05-06T19:07:48Z</time></trkpt>
<trkpt lat="50.070303" lon="4.595047"><time>2026-05-06T19:17:48Z</time></trkpt>
<trkpt lat="50.069912" lon="4.592308"><time>2026-05-06T19:27:48Z</time></trkpt>
<trkpt lat="50.069744" lon="4.591120"><time>2026-05-06T19:37:48Z</time></trkpt>
<trkpt lat="50.069262" lon="4.589455"><time>2026-05-06T19:47:48Z</time></trkpt>
</trkseg>
</trk>
<trk>
<name>nvvov68</name>
<cmt>d</cmt>
<desc>Olloy-sur-Viroin Sentier n°68 </desc>
<link href="https://chemins.be/olloy/sentier/68"/><trkseg>
<trkpt lat="50.078455" lon="4.609392"><time>2026-05-06T18:37:48Z</time></trkpt>
<trkpt lat="50.079543" lon="4.609272"><time>2026-05-06T18:47:48Z</time></trkpt>
<trkpt lat="50.080763" lon="4.610662"><time>2026-05-06T18:57:48Z</time></trkpt>
<trkpt lat="50.083177" lon="4.612812"><time>2026-05-06T19:07:48Z</time></trkpt>
</trkseg>
</trk>
<trk>
<name>nvvov69</name>
<cmt>v</cmt>
<desc>Olloy-sur-Viroin Sentier n°69 </desc>
<link href="https://chemins.be/olloy/sentier/69"/><trkseg>
<trkpt lat="50.072366" lon="4.606330"><time>2026-05-06T18:37:48Z</time></trkpt>
<trkpt lat="50.072168" lon="4.606385"><time>2026-05-06T18:47:48Z</time></trkpt>
<trkpt lat="50.072042" lon="4.606315"><time>2026-05-06T18:57:48Z</time></trkpt>
<trkpt lat="50.071835" lon="4.606328"><time>2026-05-06T19:07:48Z</time></trkpt>
</trkseg>
</trk>
<trk>
<name>nvvov7</name>
<cmt>r</cmt>
<desc>Olloy-sur-Viroin Chemin n°7 Chemin d'Oignies</desc>
<link href="https://chemins.be/olloy/chemin/7"/><trkseg>
<trkpt lat="50.070529" lon="4.607495"><time>2026-05-06T18:37:48Z</time></trkpt>
<trkpt lat="50.068355" lon="4.606743"><time>2026-05-06T18:47:48Z</time></trkpt>
<trkpt lat="50.067824" lon="4.606769"><time>2026-05-06T18:57:48Z</time></trkpt>
<trkpt lat="50.067266" lon="4.607087"><time>2026-05-06T19:07:48Z</time></trkpt>
<trkpt lat="50.066356" lon="4.608045"><time>2026-05-06T19:17:48Z</time></trkpt>
<trkpt lat="50.065529" lon="4.608352"><time>2026-05-06T19:27:48Z</time></trkpt>
<trkpt lat="50.063802" lon="4.608341"><time>2026-05-06T19:37:48Z</time></trkpt>
<trkpt lat="50.063399" lon="4.607976"><time>2026-05-06T19:47:48Z</time></trkpt>
<trkpt lat="50.062620" lon="4.606282"><time>2026-05-06T19:57:48Z</time></trkpt>
<trkpt lat="50.061955" lon="4.606083"><time>2026-05-06T20:07:48Z</time></trkpt>
<trkpt lat="50.060100" lon="4.607624"><time>2026-05-06T20:17:48Z</time></trkpt>
<trkpt lat="50.055943" lon="4.611073"><time>2026-05-06T20:27:48Z</time></trkpt>
<trkpt lat="50.053812" lon="4.611052"><time>2026-05-06T20:37:48Z</time></trkpt>
<trkpt lat="50.052517" lon="4.611953"><time>2026-05-06T20:47:48Z</time></trkpt>
<trkpt lat="50.048946" lon="4.610109"><time>2026-05-06T20:57:48Z</time></trkpt>
<trkpt lat="50.046280" lon="4.608015"><time>2026-05-06T21:07:48Z</time></trkpt>
<trkpt lat="50.042352" lon="4.607870"><time>2026-05-06T21:17:48Z</time></trkpt>
<trkpt lat="50.039341" lon="4.607297"><time>2026-05-06T21:27:48Z</time></trkpt>
<trkpt lat="50.036193" lon="4.607797"><time>2026-05-06T21:37:48Z</time></trkpt>
<trkpt lat="50.034490" lon="4.609520"><time>2026-05-06T21:47:48Z</time></trkpt>
<trkpt lat="50.032946" lon="4.612624"><time>2026-05-06T21:57:48Z</time></trkpt>
</trkseg>
</trk>
<trk>
<name>nvvov70</name>
<cmt>d</cmt>
<desc>Olloy-sur-Viroin Sentier n°70 </desc>
<link href="https://chemins.be/olloy/sentier/70"/><trkseg>
<trkpt lat="50.071524" lon="4.604468"><time>2026-05-06T18:37:48Z</time></trkpt>
<trkpt lat="50.071058" lon="4.603977"><time>2026-05-06T18:47:48Z</time></trkpt>
<trkpt lat="50.070258" lon="4.604043"><time>2026-05-06T18:57:48Z</time></trkpt>
</trkseg>
</trk>
<trk>
<name>nvvov71</name>
<cmt>d</cmt>
<desc>Olloy-sur-Viroin Sentier n°71 </desc>
<link href="https://chemins.be/olloy/sentier/71"/><trkseg>
<trkpt lat="50.069951" lon="4.604293"><time>2026-05-06T18:37:48Z</time></trkpt>
<trkpt lat="50.069438" lon="4.604500"><time>2026-05-06T18:47:48Z</time></trkpt>
<trkpt lat="50.068953" lon="4.604511"><time>2026-05-06T18:57:48Z</time></trkpt>
<trkpt lat="50.068700" lon="4.604915"><time>2026-05-06T19:07:48Z</time></trkpt>
</trkseg>
</trk>
<trk>
<name>nvvov8</name>
<cmt>r</cmt>
<desc>Olloy-sur-Viroin Chemin n°8 Rue des Florins</desc>
<link href="https://chemins.be/olloy/chemin/8"/><trkseg>
<trkpt lat="50.089993" lon="4.620672"><time>2026-05-06T18:37:48Z</time></trkpt>
<trkpt lat="50.089908" lon="4.622600"><time>2026-05-06T18:47:48Z</time></trkpt>
<trkpt lat="50.090327" lon="4.624084"><time>2026-05-06T18:57:48Z</time></trkpt>
<trkpt lat="50.090680" lon="4.626951"><time>2026-05-06T19:07:48Z</time></trkpt>
<trkpt lat="50.090804" lon="4.628041"><time>2026-05-06T19:17:48Z</time></trkpt>
</trkseg>
</trk>
<trk>
<name>nvvov9</name>
<cmt>v</cmt>
<desc>Olloy-sur-Viroin Chemin n°9 </desc>
<link href="https://chemins.be/olloy/chemin/9"/><trkseg>
<trkpt lat="50.073929" lon="4.615474"><time>2026-05-06T18:37:48Z</time></trkpt>
<trkpt lat="50.073819" lon="4.616522"><time>2026-05-06T18:47:48Z</time></trkpt>
<trkpt lat="50.073278" lon="4.616924"><time>2026-05-06T18:57:48Z</time></trkpt>
<trkpt lat="50.072475" lon="4.618317"><time>2026-05-06T19:07:48Z</time></trkpt>
<trkpt lat="50.072176" lon="4.619489"><time>2026-05-06T19:17:48Z</time></trkpt>
<trkpt lat="50.072017" lon="4.621094"><time>2026-05-06T19:27:48Z</time></trkpt>
<trkpt lat="50.072128" lon="4.621308"><time>2026-05-06T19:37:48Z</time></trkpt>
<trkpt lat="50.072239" lon="4.621859"><time>2026-05-06T19:47:48Z</time></trkpt>
<trkpt lat="50.072582" lon="4.622746"><time>2026-05-06T19:57:48Z</time></trkpt>
<trkpt lat="50.073755" lon="4.623935"><time>2026-05-06T20:07:48Z</time></trkpt>
<trkpt lat="50.074314" lon="4.624501"><time>2026-05-06T20:17:48Z</time></trkpt>
<trkpt lat="50.075831" lon="4.625571"><time>2026-05-06T20:27:48Z</time></trkpt>
<trkpt lat="50.076538" lon="4.626748"><time>2026-05-06T20:37:48Z</time></trkpt>
<trkpt lat="50.076906" lon="4.626960"><time>2026-05-06T20:47:48Z</time></trkpt>
<trkpt lat="50.077194" lon="4.627115"><time>2026-05-06T20:57:48Z</time></trkpt>
<trkpt lat="50.077921" lon="4.627790"><time>2026-05-06T21:07:48Z</time></trkpt>
<trkpt lat="50.078207" lon="4.628560"><time>2026-05-06T21:17:48Z</time></trkpt>
<trkpt lat="50.078591" lon="4.629540"><time>2026-05-06T21:27:48Z</time></trkpt>
<trkpt lat="50.078992" lon="4.631051"><time>2026-05-06T21:37:48Z</time></trkpt>
</trkseg>
</trk>
<trk>
<name>nvvovi1</name>
<cmt>v</cmt>
<desc>Olloy-sur-Viroin Sentier n°i1 </desc>
<link href="https://chemins.be/olloy/sentier/i1"/><trkseg>
<trkpt lat="50.072623" lon="4.607854"><time>2026-05-06T18:37:48Z</time></trkpt>
<trkpt lat="50.072549" lon="4.608888"><time>2026-05-06T18:47:48Z</time></trkpt>
<trkpt lat="50.072465" lon="4.610522"><time>2026-05-06T18:57:48Z</time></trkpt>
</trkseg>
</trk>
<trk>
<name>nvvovi10</name>
<cmt>v</cmt>
<desc>Olloy-sur-Viroin Chemin n°i10 </desc>
<link href="https://chemins.be/olloy/chemin/i10"/><trkseg>
<trkpt lat="50.070415" lon="4.614548"><time>2026-05-06T18:37:48Z</time></trkpt>
<trkpt lat="50.070397" lon="4.614939"><time>2026-05-06T18:47:48Z</time></trkpt>
<trkpt lat="50.069711" lon="4.615997"><time>2026-05-06T18:57:48Z</time></trkpt>
<trkpt lat="50.069088" lon="4.617209"><time>2026-05-06T19:07:48Z</time></trkpt>
<trkpt lat="50.069013" lon="4.618857"><time>2026-05-06T19:17:48Z</time></trkpt>
<trkpt lat="50.069146" lon="4.619514"><time>2026-05-06T19:27:48Z</time></trkpt>
<trkpt lat="50.069661" lon="4.622873"><time>2026-05-06T19:37:48Z</time></trkpt>
<trkpt lat="50.070385" lon="4.624368"><time>2026-05-06T19:47:48Z</time></trkpt>
<trkpt lat="50.070660" lon="4.626172"><time>2026-05-06T19:57:48Z</time></trkpt>
<trkpt lat="50.071162" lon="4.626579"><time>2026-05-06T20:07:48Z</time></trkpt>
<trkpt lat="50.072122" lon="4.627381"><time>2026-05-06T20:17:48Z</time></trkpt>
</trkseg>
</trk>
<trk>
<name>nvvovi11</name>
<cmt>v</cmt>
<desc>Olloy-sur-Viroin Chemin n°i11 </desc>
<link href="https://chemins.be/olloy/chemin/i11"/><trkseg>
<trkpt lat="50.068306" lon="4.604313"><time>2026-05-06T18:37:48Z</time></trkpt>
<trkpt lat="50.067977" lon="4.602370"><time>2026-05-06T18:47:48Z</time></trkpt>
<trkpt lat="50.068154" lon="4.599591"><time>2026-05-06T18:57:48Z</time></trkpt>
</trkseg>
</trk>
<trk>
<name>nvvovi12</name>
<cmt>v</cmt>
<desc>Olloy-sur-Viroin Chemin n°i12 </desc>
<link href="https://chemins.be/olloy/chemin/i12"/><trkseg>
<trkpt lat="50.079337" lon="4.604605"><time>2026-05-06T18:37:48Z</time></trkpt>
<trkpt lat="50.079515" lon="4.605262"><time>2026-05-06T18:47:48Z</time></trkpt>
<trkpt lat="50.079952" lon="4.607039"><time>2026-05-06T18:57:48Z</time></trkpt>
<trkpt lat="50.080015" lon="4.607025"><time>2026-05-06T19:07:48Z</time></trkpt>
<trkpt lat="50.080107" lon="4.606243"><time>2026-05-06T19:17:48Z</time></trkpt>
<trkpt lat="50.079920" lon="4.605069"><time>2026-05-06T19:27:48Z</time></trkpt>
<trkpt lat="50.080746" lon="4.604556"><time>2026-05-06T19:37:48Z</time></trkpt>
<trkpt lat="50.081221" lon="4.604191"><time>2026-05-06T19:47:48Z</time></trkpt>
</trkseg>
</trk>
<trk>
<name>nvvovi13</name>
<cmt>v</cmt>
<desc>Olloy-sur-Viroin Chemin n°i13 </desc>
<link href="https://chemins.be/olloy/chemin/i13"/><trkseg>
<trkpt lat="50.076100" lon="4.581957"><time>2026-05-06T18:37:48Z</time></trkpt>
<trkpt lat="50.076469" lon="4.581400"><time>2026-05-06T18:47:48Z</time></trkpt>
<trkpt lat="50.076353" lon="4.581148"><time>2026-05-06T18:57:48Z</time></trkpt>
<trkpt lat="50.076218" lon="4.581063"><time>2026-05-06T19:07:48Z</time></trkpt>
</trkseg>
</trk>
<trk>
<name>nvvovi14</name>
<cmt>v</cmt>
<desc>Olloy-sur-Viroin Chemin n°i14 </desc>
<link href="https://chemins.be/olloy/chemin/i14"/><trkseg>
<trkpt lat="50.073781" lon="4.595441"><time>2026-05-06T18:37:48Z</time></trkpt>
<trkpt lat="50.073874" lon="4.594128"><time>2026-05-06T18:47:48Z</time></trkpt>
</trkseg>
</trk>
<trk>
<name>nvvovi15</name>
<cmt>v</cmt>
<desc>Olloy-sur-Viroin Chemin n°i15 Rue Champagne Camping</desc>
<link href="https://chemins.be/olloy/chemin/i15"/><trkseg>
<trkpt lat="50.068197" lon="4.596085"><time>2026-05-06T18:37:48Z</time></trkpt>
<trkpt lat="50.067650" lon="4.595216"><time>2026-05-06T18:47:48Z</time></trkpt>
<trkpt lat="50.066667" lon="4.591915"><time>2026-05-06T18:57:48Z</time></trkpt>
<trkpt lat="50.066202" lon="4.590726"><time>2026-05-06T19:07:48Z</time></trkpt>
<trkpt lat="50.064909" lon="4.589938"><time>2026-05-06T19:17:48Z</time></trkpt>
<trkpt lat="50.063212" lon="4.588952"><time>2026-05-06T19:27:48Z</time></trkpt>
</trkseg>
</trk>
<trk>
<name>nvvovi16</name>
<cmt>v</cmt>
<desc>Olloy-sur-Viroin Chemin n°i16 </desc>
<link href="https://chemins.be/olloy/chemin/i16"/><trkseg>
<trkpt lat="50.066444" lon="4.591453"><time>2026-05-06T18:37:48Z</time></trkpt>
<trkpt lat="50.065860" lon="4.591115"><time>2026-05-06T18:47:48Z</time></trkpt>
<trkpt lat="50.065087" lon="4.591098"><time>2026-05-06T18:57:48Z</time></trkpt>
</trkseg>
</trk>
<trk>
<name>nvvovi17</name>
<cmt>v</cmt>
<desc>Olloy-sur-Viroin Sentier n°i17 </desc>
<link href="https://chemins.be/olloy/sentier/i17"/><trkseg>
<trkpt lat="50.072947" lon="4.607870"><time>2026-05-06T18:37:48Z</time></trkpt>
<trkpt lat="50.073297" lon="4.607886"><time>2026-05-06T18:47:48Z</time></trkpt>
<trkpt lat="50.073460" lon="4.607747"><time>2026-05-06T18:57:48Z</time></trkpt>
</trkseg>
</trk>
<trk>
<name>nvvovi18</name>
<cmt>v</cmt>
<desc>Olloy-sur-Viroin Chemin n°i18 </desc>
<link href="https://chemins.be/olloy/chemin/i18"/><trkseg>
<trkpt lat="50.073784" lon="4.607301"><time>2026-05-06T18:37:48Z</time></trkpt>
<trkpt lat="50.073838" lon="4.607455"><time>2026-05-06T18:47:48Z</time></trkpt>
</trkseg>
</trk>
<trk>
<name>nvvovi19</name>
<cmt>v</cmt>
<desc>Olloy-sur-Viroin Chemin n°i19 </desc>
<link href="https://chemins.be/olloy/chemin/i19"/><trkseg>
<trkpt lat="50.077224" lon="4.617615"><time>2026-05-06T18:37:48Z</time></trkpt>
<trkpt lat="50.077231" lon="4.618216"><time>2026-05-06T18:47:48Z</time></trkpt>
<trkpt lat="50.077159" lon="4.618355"><time>2026-05-06T18:57:48Z</time></trkpt>
<trkpt lat="50.076970" lon="4.618340"><time>2026-05-06T19:07:48Z</time></trkpt>
<trkpt lat="50.076224" lon="4.618630"><time>2026-05-06T19:17:48Z</time></trkpt>
<trkpt lat="50.075917" lon="4.618963"><time>2026-05-06T19:27:48Z</time></trkpt>
</trkseg>
</trk>
<trk>
<name>nvvovi2</name>
<cmt>v</cmt>
<desc>Olloy-sur-Viroin Sentier n°i2 Sentier du Monument</desc>
<link href="https://chemins.be/olloy/sentier/i2"/><trkseg>
<trkpt lat="50.070623" lon="4.609898"><time>2026-05-06T18:37:48Z</time></trkpt>
<trkpt lat="50.070507" lon="4.609590"><time>2026-05-06T18:47:48Z</time></trkpt>
<trkpt lat="50.070175" lon="4.609211"><time>2026-05-06T18:57:48Z</time></trkpt>
<trkpt lat="50.069689" lon="4.608562"><time>2026-05-06T19:07:48Z</time></trkpt>
<trkpt lat="50.069597" lon="4.608498"><time>2026-05-06T19:17:48Z</time></trkpt>
<trkpt lat="50.069545" lon="4.608508"><time>2026-05-06T19:27:48Z</time></trkpt>
<trkpt lat="50.069498" lon="4.608382"><time>2026-05-06T19:37:48Z</time></trkpt>
<trkpt lat="50.068955" lon="4.608087"><time>2026-05-06T19:47:48Z</time></trkpt>
<trkpt lat="50.068119" lon="4.607608"><time>2026-05-06T19:57:48Z</time></trkpt>
<trkpt lat="50.067868" lon="4.607593"><time>2026-05-06T20:07:48Z</time></trkpt>
<trkpt lat="50.067788" lon="4.606866"><time>2026-05-06T20:17:48Z</time></trkpt>
</trkseg>
</trk>
<trk>
<name>nvvovi20</name>
<cmt>v</cmt>
<desc>Olloy-sur-Viroin Chemin n°i20 </desc>
<link href="https://chemins.be/olloy/chemin/i20"/><trkseg>
<trkpt lat="50.077141" lon="4.618439"><time>2026-05-06T18:37:48Z</time></trkpt>
<trkpt lat="50.077230" lon="4.618663"><time>2026-05-06T18:47:48Z</time></trkpt>
<trkpt lat="50.077419" lon="4.618832"><time>2026-05-06T18:57:48Z</time></trkpt>
<trkpt lat="50.077536" lon="4.618832"><time>2026-05-06T19:07:48Z</time></trkpt>
</trkseg>
</trk>
<trk>
<name>nvvovi21</name>
<cmt>v</cmt>
<desc>Olloy-sur-Viroin Chemin n°i21 </desc>
<link href="https://chemins.be/olloy/chemin/i21"/><trkseg>
<trkpt lat="50.077778" lon="4.619099"><time>2026-05-06T18:37:48Z</time></trkpt>
<trkpt lat="50.078173" lon="4.619324"><time>2026-05-06T18:47:48Z</time></trkpt>
<trkpt lat="50.079289" lon="4.621022"><time>2026-05-06T18:57:48Z</time></trkpt>
<trkpt lat="50.080028" lon="4.620886"><time>2026-05-06T19:07:48Z</time></trkpt>
</trkseg>
</trk>
<trk>
<name>nvvovi22</name>
<cmt>v</cmt>
<desc>Olloy-sur-Viroin Chemin n°i22 </desc>
<link href="https://chemins.be/olloy/chemin/i22"/><trkseg>
<trkpt lat="50.078669" lon="4.622792"><time>2026-05-06T18:37:48Z</time></trkpt>
<trkpt lat="50.078928" lon="4.623506"><time>2026-05-06T18:47:48Z</time></trkpt>
<trkpt lat="50.079268" lon="4.624178"><time>2026-05-06T18:57:48Z</time></trkpt>
<trkpt lat="50.079761" lon="4.625061"><time>2026-05-06T19:07:48Z</time></trkpt>
<trkpt lat="50.080012" lon="4.625314"><time>2026-05-06T19:17:48Z</time></trkpt>
<trkpt lat="50.080344" lon="4.625469"><time>2026-05-06T19:27:48Z</time></trkpt>
<trkpt lat="50.080767" lon="4.625514"><time>2026-05-06T19:37:48Z</time></trkpt>
</trkseg>
</trk>
<trk>
<name>nvvovi23</name>
<cmt>v</cmt>
<desc>Olloy-sur-Viroin Chemin n°i23 </desc>
<link href="https://chemins.be/olloy/chemin/i23"/><trkseg>
<trkpt lat="50.057619" lon="4.593688"><time>2026-05-06T18:37:48Z</time></trkpt>
<trkpt lat="50.057456" lon="4.593068"><time>2026-05-06T18:47:48Z</time></trkpt>
<trkpt lat="50.056957" lon="4.592135"><time>2026-05-06T18:57:48Z</time></trkpt>
</trkseg>
</trk>
<trk>
<name>nvvovi24</name>
<cmt>v</cmt>
<desc>Olloy-sur-Viroin Chemin n°i24 Chemin du Vicinal</desc>
<link href="https://chemins.be/olloy/chemin/i24"/><trkseg>
<trkpt lat="50.056210" lon="4.592551"><time>2026-05-06T18:37:48Z</time></trkpt>
<trkpt lat="50.055077" lon="4.592545"><time>2026-05-06T18:47:48Z</time></trkpt>
<trkpt lat="50.053621" lon="4.592650"><time>2026-05-06T18:57:48Z</time></trkpt>
<trkpt lat="50.051025" lon="4.591284"><time>2026-05-06T19:07:48Z</time></trkpt>
<trkpt lat="50.050225" lon="4.591001"><time>2026-05-06T19:17:48Z</time></trkpt>
<trkpt lat="50.049523" lon="4.591779"><time>2026-05-06T19:27:48Z</time></trkpt>
<trkpt lat="50.047694" lon="4.593711"><time>2026-05-06T19:37:48Z</time></trkpt>
<trkpt lat="50.046237" lon="4.593788"><time>2026-05-06T19:47:48Z</time></trkpt>
<trkpt lat="50.045633" lon="4.594442"><time>2026-05-06T19:57:48Z</time></trkpt>
<trkpt lat="50.043234" lon="4.593621"><time>2026-05-06T20:07:48Z</time></trkpt>
<trkpt lat="50.041061" lon="4.592633"><time>2026-05-06T20:17:48Z</time></trkpt>
<trkpt lat="50.040764" lon="4.592785"><time>2026-05-06T20:27:48Z</time></trkpt>
<trkpt lat="50.039553" lon="4.595627"><time>2026-05-06T20:37:48Z</time></trkpt>
<trkpt lat="50.037277" lon="4.596538"><time>2026-05-06T20:47:48Z</time></trkpt>
<trkpt lat="50.035452" lon="4.596264"><time>2026-05-06T20:57:48Z</time></trkpt>
<trkpt lat="50.032667" lon="4.598356"><time>2026-05-06T21:07:48Z</time></trkpt>
<trkpt lat="50.032405" lon="4.599180"><time>2026-05-06T21:17:48Z</time></trkpt>
</trkseg>
</trk>
<trk>
<name>nvvovi25</name>
<cmt>v</cmt>
<desc>Olloy-sur-Viroin Chemin n°i25 </desc>
<link href="https://chemins.be/olloy/chemin/i25"/><trkseg>
<trkpt lat="50.078002" lon="4.606554"><time>2026-05-06T18:37:48Z</time></trkpt>
<trkpt lat="50.078200" lon="4.606541"><time>2026-05-06T18:47:48Z</time></trkpt>
</trkseg>
</trk>
<trk>
<name>nvvovi26</name>
<cmt>v</cmt>
<desc>Olloy-sur-Viroin Chemin n°i26 Chemin du Bassin</desc>
<link href="https://chemins.be/olloy/chemin/i26"/><trkseg>
<trkpt lat="50.057077" lon="4.619236"><time>2026-05-06T18:37:48Z</time></trkpt>
<trkpt lat="50.055219" lon="4.619497"><time>2026-05-06T18:47:48Z</time></trkpt>
<trkpt lat="50.053791" lon="4.619029"><time>2026-05-06T18:57:48Z</time></trkpt>
<trkpt lat="50.053315" lon="4.618789"><time>2026-05-06T19:07:48Z</time></trkpt>
<trkpt lat="50.052400" lon="4.618627"><time>2026-05-06T19:17:48Z</time></trkpt>
</trkseg>
</trk>
<trk>
<name>nvvovi27</name>
<cmt>d</cmt>
<desc>Olloy-sur-Viroin Chemin n°i27 Chemin du Bois de Wallen</desc>
<link href="https://chemins.be/olloy/chemin/i27"/><trkseg>
<trkpt lat="50.080094" lon="4.599299"><time>2026-05-06T18:37:48Z</time></trkpt>
<trkpt lat="50.081275" lon="4.602016"><time>2026-05-06T18:47:48Z</time></trkpt>
<trkpt lat="50.082155" lon="4.602509"><time>2026-05-06T18:57:48Z</time></trkpt>
</trkseg>
</trk>
<trk>
<name>nvvovi28</name>
<cmt>v</cmt>
<desc>Olloy-sur-Viroin Sentier n°i28 </desc>
<link href="https://chemins.be/olloy/sentier/i28"/><trkseg>
<trkpt lat="50.080335" lon="4.625483"><time>2026-05-06T18:37:48Z</time></trkpt>
<trkpt lat="50.080469" lon="4.626183"><time>2026-05-06T18:47:48Z</time></trkpt>
<trkpt lat="50.080360" lon="4.626517"><time>2026-05-06T18:57:48Z</time></trkpt>
<trkpt lat="50.080665" lon="4.626743"><time>2026-05-06T19:07:48Z</time></trkpt>
</trkseg>
</trk>
<trk>
<name>nvvovi29</name>
<cmt>v</cmt>
<desc>Olloy-sur-Viroin Chemin n°i29 Rue Jean Chot</desc>
<link href="https://chemins.be/olloy/chemin/i29"/><trkseg>
<trkpt lat="50.073389" lon="4.602648"><time>2026-05-06T18:37:48Z</time></trkpt>
<trkpt lat="50.073417" lon="4.602019"><time>2026-05-06T18:47:48Z</time></trkpt>
<trkpt lat="50.073474" lon="4.600790"><time>2026-05-06T18:57:48Z</time></trkpt>
<trkpt lat="50.073603" lon="4.599338"><time>2026-05-06T19:07:48Z</time></trkpt>
<trkpt lat="50.073631" lon="4.598402"><time>2026-05-06T19:17:48Z</time></trkpt>
<trkpt lat="50.073677" lon="4.598248"><time>2026-05-06T19:27:48Z</time></trkpt>
<trkpt lat="50.073723" lon="4.597550"><time>2026-05-06T19:37:48Z</time></trkpt>
<trkpt lat="50.073752" lon="4.596614"><time>2026-05-06T19:47:48Z</time></trkpt>
<trkpt lat="50.073825" lon="4.595986"><time>2026-05-06T19:57:48Z</time></trkpt>
</trkseg>
</trk>
<trk>
<name>nvvovi3</name>
<cmt>v</cmt>
<desc>Olloy-sur-Viroin Sentier n°i3 </desc>
<link href="https://chemins.be/olloy/sentier/i3"/><trkseg>
<trkpt lat="50.067479" lon="4.608848"><time>2026-05-06T18:37:48Z</time></trkpt>
<trkpt lat="50.067533" lon="4.608360"><time>2026-05-06T18:47:48Z</time></trkpt>
<trkpt lat="50.067992" lon="4.608124"><time>2026-05-06T18:57:48Z</time></trkpt>
<trkpt lat="50.068119" lon="4.607664"><time>2026-05-06T19:07:48Z</time></trkpt>
</trkseg>
</trk>
<trk>
<name>nvvovi30</name>
<cmt>s</cmt>
<desc>Olloy-sur-Viroin Sentier n°i30 </desc>
<link href="https://chemins.be/olloy/sentier/i30"/><trkseg>
<trkpt lat="50.073589" lon="4.601782"><time>2026-05-06T18:37:48Z</time></trkpt>
<trkpt lat="50.073472" lon="4.601698"><time>2026-05-06T18:47:48Z</time></trkpt>
<trkpt lat="50.073233" lon="4.601687"><time>2026-05-06T18:57:48Z</time></trkpt>
<trkpt lat="50.072285" lon="4.601748"><time>2026-05-06T19:07:48Z</time></trkpt>
</trkseg>
</trk>
<trk>
<name>nvvovi31</name>
<cmt>v</cmt>
<desc>Olloy-sur-Viroin Chemin n°i31 Rue Coliche</desc>
<link href="https://chemins.be/olloy/chemin/i31"/><trkseg>
<trkpt lat="50.074453" lon="4.607539"><time>2026-05-06T18:37:48Z</time></trkpt>
<trkpt lat="50.074537" lon="4.608325"><time>2026-05-06T18:47:48Z</time></trkpt>
</trkseg>
</trk>
<trk>
<name>nvvovi32</name>
<cmt>v</cmt>
<desc>Olloy-sur-Viroin Sentier n°i32 </desc>
<link href="https://chemins.be/olloy/sentier/i32"/><trkseg>
<trkpt lat="50.073685" lon="4.616046"><time>2026-05-06T18:37:48Z</time></trkpt>
<trkpt lat="50.073387" lon="4.616519"><time>2026-05-06T18:47:48Z</time></trkpt>
<trkpt lat="50.072335" lon="4.616793"><time>2026-05-06T18:57:48Z</time></trkpt>
<trkpt lat="50.072154" lon="4.617016"><time>2026-05-06T19:07:48Z</time></trkpt>
<trkpt lat="50.071909" lon="4.618244"><time>2026-05-06T19:17:48Z</time></trkpt>
<trkpt lat="50.071827" lon="4.618537"><time>2026-05-06T19:27:48Z</time></trkpt>
<trkpt lat="50.071396" lon="4.618646"><time>2026-05-06T19:37:48Z</time></trkpt>
<trkpt lat="50.070927" lon="4.618923"><time>2026-05-06T19:47:48Z</time></trkpt>
<trkpt lat="50.070449" lon="4.619633"><time>2026-05-06T19:57:48Z</time></trkpt>
<trkpt lat="50.069829" lon="4.619783"><time>2026-05-06T20:07:48Z</time></trkpt>
</trkseg>
</trk>
<trk>
<name>nvvovi33</name>
<cmt>v</cmt>
<desc>Olloy-sur-Viroin Chemin n°i33 </desc>
<link href="https://chemins.be/olloy/chemin/i33"/><trkseg>
<trkpt lat="50.065071" lon="4.590092"><time>2026-05-06T18:37:48Z</time></trkpt>
<trkpt lat="50.064797" lon="4.596851"><time>2026-05-06T18:47:48Z</time></trkpt>
</trkseg>
</trk>
<trk>
<name>nvvovi34</name>
<cmt>v</cmt>
<desc>Olloy-sur-Viroin Chemin n°i34 </desc>
<link href="https://chemins.be/olloy/chemin/i34"/><trkseg>
<trkpt lat="50.064752" lon="4.596962"><time>2026-05-06T18:37:48Z</time></trkpt>
<trkpt lat="50.060851" lon="4.596245"><time>2026-05-06T18:47:48Z</time></trkpt>
<trkpt lat="50.059434" lon="4.594591"><time>2026-05-06T18:57:48Z</time></trkpt>
</trkseg>
</trk>
<trk>
<name>nvvovi35</name>
<cmt>v</cmt>
<desc>Olloy-sur-Viroin Chemin n°i35 </desc>
<link href="https://chemins.be/olloy/chemin/i35"/><trkseg>
<trkpt lat="50.076048" lon="4.594977"><time>2026-05-06T18:37:48Z</time></trkpt>
<trkpt lat="50.076415" lon="4.595649"><time>2026-05-06T18:47:48Z</time></trkpt>
<trkpt lat="50.077465" lon="4.596576"><time>2026-05-06T18:57:48Z</time></trkpt>
<trkpt lat="50.077652" lon="4.597373"><time>2026-05-06T19:07:48Z</time></trkpt>
<trkpt lat="50.077607" lon="4.597639"><time>2026-05-06T19:17:48Z</time></trkpt>
<trkpt lat="50.077768" lon="4.598073"><time>2026-05-06T19:27:48Z</time></trkpt>
<trkpt lat="50.077570" lon="4.598197"><time>2026-05-06T19:37:48Z</time></trkpt>
</trkseg>
</trk>
<trk>
<name>nvvovi36</name>
<cmt>s</cmt>
<desc>Olloy-sur-Viroin Sentier n°i36 </desc>
<link href="https://chemins.be/olloy/sentier/i36"/><trkseg>
<trkpt lat="50.077528" lon="4.596465"><time>2026-05-06T18:37:48Z</time></trkpt>
<trkpt lat="50.077691" lon="4.596032"><time>2026-05-06T18:47:48Z</time></trkpt>
<trkpt lat="50.077791" lon="4.595628"><time>2026-05-06T18:57:48Z</time></trkpt>
<trkpt lat="50.077908" lon="4.595531"><time>2026-05-06T19:07:48Z</time></trkpt>
</trkseg>
</trk>
<trk>
<name>nvvovi37</name>
<cmt>v</cmt>
<desc>Olloy-sur-Viroin Chemin n°i37 </desc>
<link href="https://chemins.be/olloy/chemin/i37"/><trkseg>
<trkpt lat="50.068441" lon="4.613373"><time>2026-05-06T18:37:48Z</time></trkpt>
<trkpt lat="50.068000" lon="4.613877"><time>2026-05-06T18:47:48Z</time></trkpt>
<trkpt lat="50.067670" lon="4.613995"><time>2026-05-06T18:57:48Z</time></trkpt>
<trkpt lat="50.067077" lon="4.614564"><time>2026-05-06T19:07:48Z</time></trkpt>
<trkpt lat="50.066258" lon="4.615808"><time>2026-05-06T19:17:48Z</time></trkpt>
<trkpt lat="50.065267" lon="4.617427"><time>2026-05-06T19:27:48Z</time></trkpt>
<trkpt lat="50.064555" lon="4.618219"><time>2026-05-06T19:37:48Z</time></trkpt>
<trkpt lat="50.063906" lon="4.618733"><time>2026-05-06T19:47:48Z</time></trkpt>
<trkpt lat="50.063231" lon="4.619092"><time>2026-05-06T19:57:48Z</time></trkpt>
<trkpt lat="50.060399" lon="4.619203"><time>2026-05-06T20:07:48Z</time></trkpt>
<trkpt lat="50.060156" lon="4.619300"><time>2026-05-06T20:17:48Z</time></trkpt>
</trkseg>
</trk>
<trk>
<name>nvvovi38</name>
<cmt>v</cmt>
<desc>Olloy-sur-Viroin Sentier n°i38 </desc>
<link href="https://chemins.be/olloy/sentier/i38"/><trkseg>
<trkpt lat="50.077318" lon="4.589143"><time>2026-05-06T18:37:48Z</time></trkpt>
<trkpt lat="50.077201" lon="4.589198"><time>2026-05-06T18:47:48Z</time></trkpt>
<trkpt lat="50.076940" lon="4.589295"><time>2026-05-06T18:57:48Z</time></trkpt>
<trkpt lat="50.076724" lon="4.589322"><time>2026-05-06T19:07:48Z</time></trkpt>
<trkpt lat="50.076564" lon="4.588609"><time>2026-05-06T19:17:48Z</time></trkpt>
<trkpt lat="50.076430" lon="4.587742"><time>2026-05-06T19:27:48Z</time></trkpt>
<trkpt lat="50.076395" lon="4.587323"><time>2026-05-06T19:37:48Z</time></trkpt>
<trkpt lat="50.076333" lon="4.587015"><time>2026-05-06T19:47:48Z</time></trkpt>
<trkpt lat="50.076243" lon="4.586903"><time>2026-05-06T19:57:48Z</time></trkpt>
<trkpt lat="50.076198" lon="4.586819"><time>2026-05-06T20:07:48Z</time></trkpt>
<trkpt lat="50.076208" lon="4.586595"><time>2026-05-06T20:17:48Z</time></trkpt>
<trkpt lat="50.076109" lon="4.586721"><time>2026-05-06T20:27:48Z</time></trkpt>
<trkpt lat="50.075956" lon="4.586832"><time>2026-05-06T20:37:48Z</time></trkpt>
<trkpt lat="50.075911" lon="4.586538"><time>2026-05-06T20:47:48Z</time></trkpt>
<trkpt lat="50.075831" lon="4.586035"><time>2026-05-06T20:57:48Z</time></trkpt>
<trkpt lat="50.075733" lon="4.585629"><time>2026-05-06T21:07:48Z</time></trkpt>
<trkpt lat="50.075644" lon="4.585126"><time>2026-05-06T21:17:48Z</time></trkpt>
<trkpt lat="50.075564" lon="4.584832"><time>2026-05-06T21:27:48Z</time></trkpt>
<trkpt lat="50.075429" lon="4.584720"><time>2026-05-06T21:37:48Z</time></trkpt>
</trkseg>
</trk>
<trk>
<name>nvvovi39</name>
<cmt>v</cmt>
<desc>Olloy-sur-Viroin Sentier n°i39 </desc>
<link href="https://chemins.be/olloy/sentier/i39"/><trkseg>
<trkpt lat="50.079036" lon="4.611212"><time>2026-05-06T18:37:48Z</time></trkpt>
<trkpt lat="50.078286" lon="4.611541"><time>2026-05-06T18:47:48Z</time></trkpt>
<trkpt lat="50.078197" lon="4.612485"><time>2026-05-06T18:57:48Z</time></trkpt>
<trkpt lat="50.078352" lon="4.615163"><time>2026-05-06T19:07:48Z</time></trkpt>
<trkpt lat="50.079619" lon="4.620777"><time>2026-05-06T19:17:48Z</time></trkpt>
</trkseg>
</trk>
<trk>
<name>nvvovi4</name>
<cmt>v</cmt>
<desc>Olloy-sur-Viroin Chemin n°i4 </desc>
<link href="https://chemins.be/olloy/chemin/i4"/><trkseg>
<trkpt lat="50.075963" lon="4.597030"><time>2026-05-06T18:37:48Z</time></trkpt>
<trkpt lat="50.076049" lon="4.594446"><time>2026-05-06T18:47:48Z</time></trkpt>
<trkpt lat="50.075560" lon="4.591440"><time>2026-05-06T18:57:48Z</time></trkpt>
<trkpt lat="50.075689" lon="4.590016"><time>2026-05-06T19:07:48Z</time></trkpt>
<trkpt lat="50.075407" lon="4.587095"><time>2026-05-06T19:17:48Z</time></trkpt>
<trkpt lat="50.075521" lon="4.583812"><time>2026-05-06T19:27:48Z</time></trkpt>
<trkpt lat="50.076099" lon="4.582027"><time>2026-05-06T19:37:48Z</time></trkpt>
<trkpt lat="50.076720" lon="4.581862"><time>2026-05-06T19:47:48Z</time></trkpt>
<trkpt lat="50.076827" lon="4.582477"><time>2026-05-06T19:57:48Z</time></trkpt>
<trkpt lat="50.077542" lon="4.589256"><time>2026-05-06T20:07:48Z</time></trkpt>
<trkpt lat="50.077356" lon="4.592776"><time>2026-05-06T20:17:48Z</time></trkpt>
<trkpt lat="50.077807" lon="4.594902"><time>2026-05-06T20:27:48Z</time></trkpt>
<trkpt lat="50.077961" lon="4.595607"><time>2026-05-06T20:37:48Z</time></trkpt>
<trkpt lat="50.079977" lon="4.599117"><time>2026-05-06T20:47:48Z</time></trkpt>
</trkseg>
</trk>
<trk>
<name>nvvovi40</name>
<cmt>v</cmt>
<desc>Olloy-sur-Viroin Sentier n°i40 </desc>
<link href="https://chemins.be/olloy/sentier/i40"/><trkseg>
<trkpt lat="50.079515" lon="4.605276"><time>2026-05-06T18:37:48Z</time></trkpt>
<trkpt lat="50.079911" lon="4.605069"><time>2026-05-06T18:47:48Z</time></trkpt>
</trkseg>
</trk>
<trk>
<name>nvvovi41</name>
<cmt>r</cmt>
<desc>Olloy-sur-Viroin Chemin n°i41 </desc>
<link href="https://chemins.be/olloy/chemin/i41"/><trkseg>
<trkpt lat="50.072824" lon="4.607641"><time>2026-05-06T18:37:48Z</time></trkpt>
<trkpt lat="50.072232" lon="4.608204"><time>2026-05-06T18:47:48Z</time></trkpt>
<trkpt lat="50.071994" lon="4.608124"><time>2026-05-06T18:57:48Z</time></trkpt>
</trkseg>
</trk>
<trk>
<name>nvvovi42</name>
<cmt>r</cmt>
<desc>Olloy-sur-Viroin Chemin n°i42 Rue Alfred Soussigné</desc>
<link href="https://chemins.be/olloy/chemin/i42"/><trkseg>
<trkpt lat="50.074253" lon="4.607595"><time>2026-05-06T18:37:48Z</time></trkpt>
<trkpt lat="50.074907" lon="4.607405"><time>2026-05-06T18:47:48Z</time></trkpt>
</trkseg>
</trk>
<trk>
<name>nvvovi43</name>
<cmt>v</cmt>
<desc>Olloy-sur-Viroin Chemin n°i43 </desc>
<link href="https://chemins.be/olloy/chemin/i43"/><trkseg>
<trkpt lat="50.064786" lon="4.605555"><time>2026-05-06T18:37:48Z</time></trkpt>
<trkpt lat="50.065305" lon="4.605033"><time>2026-05-06T18:47:48Z</time></trkpt>
<trkpt lat="50.065337" lon="4.604654"><time>2026-05-06T18:57:48Z</time></trkpt>
<trkpt lat="50.064919" lon="4.603166"><time>2026-05-06T19:07:48Z</time></trkpt>
</trkseg>
</trk>
<trk>
<name>nvvovi44</name>
<cmt>v</cmt>
<desc>Olloy-sur-Viroin Sentier n°i44 </desc>
<link href="https://chemins.be/olloy/sentier/i44"/><trkseg>
<trkpt lat="50.070680" lon="4.626102"><time>2026-05-06T18:37:48Z</time></trkpt>
<trkpt lat="50.067685" lon="4.629759"><time>2026-05-06T18:47:48Z</time></trkpt>
<trkpt lat="50.065233" lon="4.630939"><time>2026-05-06T18:57:48Z</time></trkpt>
<trkpt lat="50.063371" lon="4.633473"><time>2026-05-06T19:07:48Z</time></trkpt>
</trkseg>
</trk>
<trk>
<name>nvvovi45</name>
<cmt>v</cmt>
<desc>Olloy-sur-Viroin Chemin n°i45 </desc>
<link href="https://chemins.be/olloy/chemin/i45"/><trkseg>
<trkpt lat="50.083048" lon="4.614481"><time>2026-05-06T18:37:48Z</time></trkpt>
<trkpt lat="50.082621" lon="4.616155"><time>2026-05-06T18:47:48Z</time></trkpt>
<trkpt lat="50.081900" lon="4.616877"><time>2026-05-06T18:57:48Z</time></trkpt>
</trkseg>
</trk>
<trk>
<name>nvvovi46</name>
<cmt>v</cmt>
<desc>Olloy-sur-Viroin Sentier n°i46 </desc>
<link href="https://chemins.be/olloy/sentier/i46"/><trkseg>
<trkpt lat="50.062578" lon="4.598590"><time>2026-05-06T18:37:48Z</time></trkpt>
<trkpt lat="50.061852" lon="4.597861"><time>2026-05-06T18:47:48Z</time></trkpt>
<trkpt lat="50.061871" lon="4.594470"><time>2026-05-06T18:57:48Z</time></trkpt>
<trkpt lat="50.063037" lon="4.589707"><time>2026-05-06T19:07:48Z</time></trkpt>
<trkpt lat="50.063028" lon="4.589020"><time>2026-05-06T19:17:48Z</time></trkpt>
</trkseg>
</trk>
<trk>
<name>nvvovi47</name>
<cmt>v</cmt>
<desc>Olloy-sur-Viroin Sentier n°i47 </desc>
<link href="https://chemins.be/olloy/sentier/i47"/><trkseg>
<trkpt lat="50.068211" lon="4.616057"><time>2026-05-06T18:37:48Z</time></trkpt>
<trkpt lat="50.067715" lon="4.615256"><time>2026-05-06T18:47:48Z</time></trkpt>
<trkpt lat="50.066236" lon="4.619375"><time>2026-05-06T18:57:48Z</time></trkpt>
<trkpt lat="50.066347" lon="4.619719"><time>2026-05-06T19:07:48Z</time></trkpt>
<trkpt lat="50.066209" lon="4.620177"><time>2026-05-06T19:17:48Z</time></trkpt>
<trkpt lat="50.065933" lon="4.620291"><time>2026-05-06T19:27:48Z</time></trkpt>
<trkpt lat="50.064446" lon="4.622194"><time>2026-05-06T19:37:48Z</time></trkpt>
<trkpt lat="50.061048" lon="4.623209"><time>2026-05-06T19:47:48Z</time></trkpt>
<trkpt lat="50.058155" lon="4.628173"><time>2026-05-06T19:57:48Z</time></trkpt>
<trkpt lat="50.057953" lon="4.629203"><time>2026-05-06T20:07:48Z</time></trkpt>
</trkseg>
</trk>
<trk>
<name>nvvovi48</name>
<cmt>v</cmt>
<desc>Olloy-sur-Viroin Chemin n°i48 </desc>
<link href="https://chemins.be/olloy/chemin/i48"/><trkseg>
<trkpt lat="50.058311" lon="4.596946"><time>2026-05-06T18:37:48Z</time></trkpt>
<trkpt lat="50.058133" lon="4.596994"><time>2026-05-06T18:47:48Z</time></trkpt>
<trkpt lat="50.057702" lon="4.597262"><time>2026-05-06T18:57:48Z</time></trkpt>
<trkpt lat="50.056346" lon="4.598776"><time>2026-05-06T19:07:48Z</time></trkpt>
<trkpt lat="50.055225" lon="4.601594"><time>2026-05-06T19:17:48Z</time></trkpt>
<trkpt lat="50.054662" lon="4.605065"><time>2026-05-06T19:27:48Z</time></trkpt>
<trkpt lat="50.053955" lon="4.608729"><time>2026-05-06T19:37:48Z</time></trkpt>
</trkseg>
</trk>
<trk>
<name>nvvovi49</name>
<cmt>v</cmt>
<desc>Olloy-sur-Viroin Sentier n°i49 </desc>
<link href="https://chemins.be/olloy/sentier/i49"/><trkseg>
<trkpt lat="50.061215" lon="4.577013"><time>2026-05-06T18:37:48Z</time></trkpt>
<trkpt lat="50.061002" lon="4.578835"><time>2026-05-06T18:47:48Z</time></trkpt>
<trkpt lat="50.061204" lon="4.582125"><time>2026-05-06T18:57:48Z</time></trkpt>
<trkpt lat="50.063042" lon="4.588929"><time>2026-05-06T19:07:48Z</time></trkpt>
</trkseg>
</trk>
<trk>
<name>nvvovi5</name>
<cmt>v</cmt>
<desc>Olloy-sur-Viroin Chemin n°i5 </desc>
<link href="https://chemins.be/olloy/chemin/i5"/><trkseg>
<trkpt lat="50.077534" lon="4.598197"><time>2026-05-06T18:37:48Z</time></trkpt>
<trkpt lat="50.078197" lon="4.599178"><time>2026-05-06T18:47:48Z</time></trkpt>
<trkpt lat="50.078887" lon="4.600565"><time>2026-05-06T18:57:48Z</time></trkpt>
<trkpt lat="50.078939" lon="4.601180"><time>2026-05-06T19:07:48Z</time></trkpt>
<trkpt lat="50.079665" lon="4.602720"><time>2026-05-06T19:17:48Z</time></trkpt>
<trkpt lat="50.079880" lon="4.603089"><time>2026-05-06T19:27:48Z</time></trkpt>
<trkpt lat="50.081098" lon="4.605172"><time>2026-05-06T19:37:48Z</time></trkpt>
<trkpt lat="50.082757" lon="4.611622"><time>2026-05-06T19:47:48Z</time></trkpt>
<trkpt lat="50.082880" lon="4.612768"><time>2026-05-06T19:57:48Z</time></trkpt>
<trkpt lat="50.083035" lon="4.614481"><time>2026-05-06T20:07:48Z</time></trkpt>
<trkpt lat="50.083117" lon="4.615396"><time>2026-05-06T20:17:48Z</time></trkpt>
<trkpt lat="50.082925" lon="4.617226"><time>2026-05-06T20:27:48Z</time></trkpt>
<trkpt lat="50.083552" lon="4.618319"><time>2026-05-06T20:37:48Z</time></trkpt>
</trkseg>
</trk>
<trk>
<name>nvvovi50</name>
<cmt>v</cmt>
<desc>Olloy-sur-Viroin Sentier n°i50 Sentier boueux</desc>
<link href="https://chemins.be/olloy/sentier/i50"/><trkseg>
<trkpt lat="50.056004" lon="4.627931"><time>2026-05-06T18:37:48Z</time></trkpt>
<trkpt lat="50.057250" lon="4.626660"><time>2026-05-06T18:47:48Z</time></trkpt>
<trkpt lat="50.059011" lon="4.622108"><time>2026-05-06T18:57:48Z</time></trkpt>
<trkpt lat="50.059481" lon="4.619790"><time>2026-05-06T19:07:48Z</time></trkpt>
</trkseg>
</trk>
<trk>
<name>nvvovi51</name>
<cmt>v</cmt>
<desc>Olloy-sur-Viroin Chemin n°i51 </desc>
<link href="https://chemins.be/olloy/chemin/i51"/><trkseg>
<trkpt lat="50.060269" lon="4.619227"><time>2026-05-06T18:37:48Z</time></trkpt>
<trkpt lat="50.059784" lon="4.621270"><time>2026-05-06T18:47:48Z</time></trkpt>
<trkpt lat="50.059366" lon="4.622815"><time>2026-05-06T18:57:48Z</time></trkpt>
<trkpt lat="50.059388" lon="4.624154"><time>2026-05-06T19:07:48Z</time></trkpt>
<trkpt lat="50.058969" lon="4.624343"><time>2026-05-06T19:17:48Z</time></trkpt>
<trkpt lat="50.057635" lon="4.629042"><time>2026-05-06T19:27:48Z</time></trkpt>
</trkseg>
</trk>
<trk>
<name>nvvovi6</name>
<cmt>v</cmt>
<desc>Olloy-sur-Viroin Chemin n°i6 </desc>
<link href="https://chemins.be/olloy/chemin/i6"/><trkseg>
<trkpt lat="50.077582" lon="4.605323"><time>2026-05-06T18:37:48Z</time></trkpt>
<trkpt lat="50.078191" lon="4.606499"><time>2026-05-06T18:47:48Z</time></trkpt>
<trkpt lat="50.079055" lon="4.606126"><time>2026-05-06T18:57:48Z</time></trkpt>
<trkpt lat="50.079244" lon="4.605946"><time>2026-05-06T19:07:48Z</time></trkpt>
<trkpt lat="50.079348" lon="4.603417"><time>2026-05-06T19:17:48Z</time></trkpt>
<trkpt lat="50.079611" lon="4.602678"><time>2026-05-06T19:27:48Z</time></trkpt>
<trkpt lat="50.079570" lon="4.600415"><time>2026-05-06T19:37:48Z</time></trkpt>
</trkseg>
</trk>
<trk>
<name>nvvovi7</name>
<cmt>v</cmt>
<desc>Olloy-sur-Viroin Sentier n°i7 Sentier de la Roche du Pas</desc>
<link href="https://chemins.be/olloy/sentier/i7"/><trkseg>
<trkpt lat="50.077855" lon="4.608244"><time>2026-05-06T18:37:48Z</time></trkpt>
<trkpt lat="50.077639" lon="4.608327"><time>2026-05-06T18:47:48Z</time></trkpt>
<trkpt lat="50.077970" lon="4.609348"><time>2026-05-06T18:57:48Z</time></trkpt>
<trkpt lat="50.078431" lon="4.612215"><time>2026-05-06T19:07:48Z</time></trkpt>
<trkpt lat="50.079033" lon="4.616619"><time>2026-05-06T19:17:48Z</time></trkpt>
<trkpt lat="50.080042" lon="4.620872"><time>2026-05-06T19:27:48Z</time></trkpt>
<trkpt lat="50.080376" lon="4.623192"><time>2026-05-06T19:37:48Z</time></trkpt>
<trkpt lat="50.080758" lon="4.625472"><time>2026-05-06T19:47:48Z</time></trkpt>
</trkseg></trk>
<trk>
<name>nvvovi7</name>
<cmt>s</cmt>
<desc>Olloy-sur-Viroin Sentier n°i7 Sentier de la Roche du Pas</desc>
<link href="https://chemins.be/olloy/sentier/i7"/><trkseg>
<trkpt lat="50.080758" lon="4.625472"><time>2026-05-06T19:47:48Z</time></trkpt>
<trkpt lat="50.080710" lon="4.626575"><time>2026-05-06T19:57:48Z</time></trkpt>
</trkseg></trk>
<trk>
<name>nvvovi7</name>
<cmt>v</cmt>
<desc>Olloy-sur-Viroin Sentier n°i7 Sentier de la Roche du Pas</desc>
<link href="https://chemins.be/olloy/sentier/i7"/><trkseg>
<trkpt lat="50.080710" lon="4.626575"><time>2026-05-06T19:57:48Z</time></trkpt>
<trkpt lat="50.079996" lon="4.628430"><time>2026-05-06T20:07:48Z</time></trkpt>
<trkpt lat="50.080092" lon="4.629618"><time>2026-05-06T20:17:48Z</time></trkpt>
<trkpt lat="50.080349" lon="4.631393"><time>2026-05-06T20:27:48Z</time></trkpt>
<trkpt lat="50.080448" lon="4.631338"><time>2026-05-06T20:37:48Z</time></trkpt>
<trkpt lat="50.080402" lon="4.631603"><time>2026-05-06T20:47:48Z</time></trkpt>
</trkseg>
</trk>
<trk>
<name>nvvovi8</name>
<cmt>v</cmt>
<desc>Olloy-sur-Viroin Sentier n°i8 </desc>
<link href="https://chemins.be/olloy/sentier/i8"/><trkseg>
<trkpt lat="50.057989" lon="4.619149"><time>2026-05-06T18:37:48Z</time></trkpt>
<trkpt lat="50.057077" lon="4.619236"><time>2026-05-06T18:47:48Z</time></trkpt>
<trkpt lat="50.056695" lon="4.618904"><time>2026-05-06T18:57:48Z</time></trkpt>
<trkpt lat="50.055861" lon="4.618160"><time>2026-05-06T19:07:48Z</time></trkpt>
<trkpt lat="50.054294" lon="4.611072"><time>2026-05-06T19:17:48Z</time></trkpt>
<trkpt lat="50.053894" lon="4.608864"><time>2026-05-06T19:27:48Z</time></trkpt>
<trkpt lat="50.054533" lon="4.608350"><time>2026-05-06T19:37:48Z</time></trkpt>
<trkpt lat="50.055374" lon="4.606148"><time>2026-05-06T19:47:48Z</time></trkpt>
<trkpt lat="50.056041" lon="4.605132"><time>2026-05-06T19:57:48Z</time></trkpt>
<trkpt lat="50.056815" lon="4.604842"><time>2026-05-06T20:07:48Z</time></trkpt>
<trkpt lat="50.060233" lon="4.603798"><time>2026-05-06T20:17:48Z</time></trkpt>
</trkseg>
</trk>
<trk>
<name>nvvovi9</name>
<cmt>v</cmt>
<desc>Olloy-sur-Viroin Chemin n°i9 </desc>
<link href="https://chemins.be/olloy/chemin/i9"/><trkseg>
<trkpt lat="50.068769" lon="4.588363"><time>2026-05-06T18:37:48Z</time></trkpt>
<trkpt lat="50.067482" lon="4.584516"><time>2026-05-06T18:47:48Z</time></trkpt>
<trkpt lat="50.067105" lon="4.583970"><time>2026-05-06T18:57:48Z</time></trkpt>
<trkpt lat="50.066189" lon="4.583323"><time>2026-05-06T19:07:48Z</time></trkpt>
<trkpt lat="50.065667" lon="4.578865"><time>2026-05-06T19:17:48Z</time></trkpt>
<trkpt lat="50.064057" lon="4.579207"><time>2026-05-06T19:27:48Z</time></trkpt>
<trkpt lat="50.064040" lon="4.578858"><time>2026-05-06T19:37:48Z</time></trkpt>
<trkpt lat="50.062693" lon="4.578098"><time>2026-05-06T19:47:48Z</time></trkpt>
<trkpt lat="50.062110" lon="4.577034"><time>2026-05-06T19:57:48Z</time></trkpt>
<trkpt lat="50.059871" lon="4.577178"><time>2026-05-06T20:07:48Z</time></trkpt>
<trkpt lat="50.058776" lon="4.576503"><time>2026-05-06T20:17:48Z</time></trkpt>
<trkpt lat="50.057821" lon="4.575382"><time>2026-05-06T20:27:48Z</time></trkpt>
<trkpt lat="50.055360" lon="4.580914"><time>2026-05-06T20:37:48Z</time></trkpt>
<trkpt lat="50.054747" lon="4.582099"><time>2026-05-06T20:47:48Z</time></trkpt>
<trkpt lat="50.052757" lon="4.583668"><time>2026-05-06T20:57:48Z</time></trkpt>
<trkpt lat="50.051817" lon="4.586149"><time>2026-05-06T21:07:48Z</time></trkpt>
<trkpt lat="50.051226" lon="4.589344"><time>2026-05-06T21:17:48Z</time></trkpt>
<trkpt lat="50.051350" lon="4.590447"><time>2026-05-06T21:27:48Z</time></trkpt>
<trkpt lat="50.052697" lon="4.591277"><time>2026-05-06T21:37:48Z</time></trkpt>
<trkpt lat="50.054827" lon="4.592041"><time>2026-05-06T21:47:48Z</time></trkpt>
<trkpt lat="50.055104" lon="4.592559"><time>2026-05-06T21:57:48Z</time></trkpt>
</trkseg>
</trk>
<trk>
<name>nvvovL132</name>
<cmt>t</cmt>
<desc>Olloy-sur-Viroin Chemin n°L132 </desc>
<link href="https://chemins.be/olloy/chemin/L132"/><trkseg>
<trkpt lat="50.076660" lon="4.580584"><time>2026-05-06T18:37:48Z</time></trkpt>
<trkpt lat="50.075187" lon="4.583921"><time>2026-05-06T18:47:48Z</time></trkpt>
<trkpt lat="50.074858" lon="4.585615"><time>2026-05-06T18:57:48Z</time></trkpt>
<trkpt lat="50.074456" lon="4.589312"><time>2026-05-06T19:07:48Z</time></trkpt>
<trkpt lat="50.073758" lon="4.595736"><time>2026-05-06T19:17:48Z</time></trkpt>
<trkpt lat="50.073112" lon="4.602548"><time>2026-05-06T19:27:48Z</time></trkpt>
<trkpt lat="50.072924" lon="4.604530"><time>2026-05-06T19:37:48Z</time></trkpt>
<trkpt lat="50.072718" lon="4.607006"><time>2026-05-06T19:47:48Z</time></trkpt>
<trkpt lat="50.072408" lon="4.610626"><time>2026-05-06T19:57:48Z</time></trkpt>
<trkpt lat="50.072148" lon="4.613486"><time>2026-05-06T20:07:48Z</time></trkpt>
<trkpt lat="50.072015" lon="4.614516"><time>2026-05-06T20:17:48Z</time></trkpt>
<trkpt lat="50.071695" lon="4.618642"><time>2026-05-06T20:27:48Z</time></trkpt>
<trkpt lat="50.071988" lon="4.621197"><time>2026-05-06T20:37:48Z</time></trkpt>
<trkpt lat="50.072968" lon="4.624177"><time>2026-05-06T20:47:48Z</time></trkpt>
<trkpt lat="50.076058" lon="4.627967"><time>2026-05-06T20:57:48Z</time></trkpt>
</trkseg>
</trk>
<trk>
<name>nvvovLv523</name>
<cmt>s</cmt>
<desc>Olloy-sur-Viroin Chemin n°Lv523 Rue de Baimont / Rue du Vicinal / Chemin du Vicinal</desc>
<link href="https://chemins.be/olloy/chemin/Lv523"/><trkseg>
<trkpt lat="50.073027" lon="4.604279"><time>2026-05-06T18:37:48Z</time></trkpt>
<trkpt lat="50.073093" lon="4.605678"><time>2026-05-06T18:47:48Z</time></trkpt>
<trkpt lat="50.072855" lon="4.606181"><time>2026-05-06T18:57:48Z</time></trkpt>
<trkpt lat="50.072709" lon="4.606242"><time>2026-05-06T19:07:48Z</time></trkpt>
<trkpt lat="50.072445" lon="4.606346"><time>2026-05-06T19:17:48Z</time></trkpt>
<trkpt lat="50.071897" lon="4.606473"><time>2026-05-06T19:27:48Z</time></trkpt>
</trkseg></trk>
<trk>
<name>nvvovLv523</name>
<cmt>v</cmt>
<desc>Olloy-sur-Viroin Chemin n°Lv523 Rue de Baimont / Rue du Vicinal / Chemin du Vicinal</desc>
<link href="https://chemins.be/olloy/chemin/Lv523"/><trkseg>
<trkpt lat="50.071897" lon="4.606473"><time>2026-05-06T19:27:48Z</time></trkpt>
<trkpt lat="50.071636" lon="4.606427"><time>2026-05-06T19:37:48Z</time></trkpt>
<trkpt lat="50.070878" lon="4.606406"><time>2026-05-06T19:47:48Z</time></trkpt>
<trkpt lat="50.069688" lon="4.605866"><time>2026-05-06T19:57:48Z</time></trkpt>
<trkpt lat="50.068728" lon="4.604796"><time>2026-05-06T20:07:48Z</time></trkpt>
<trkpt lat="50.067468" lon="4.603486"><time>2026-05-06T20:17:48Z</time></trkpt>
<trkpt lat="50.067018" lon="4.601306"><time>2026-05-06T20:27:48Z</time></trkpt>
<trkpt lat="50.066158" lon="4.599236"><time>2026-05-06T20:37:48Z</time></trkpt>
<trkpt lat="50.065508" lon="4.598726"><time>2026-05-06T20:47:48Z</time></trkpt>
<trkpt lat="50.063198" lon="4.598426"><time>2026-05-06T20:57:48Z</time></trkpt>
<trkpt lat="50.062568" lon="4.598686"><time>2026-05-06T21:07:48Z</time></trkpt>
<trkpt lat="50.061558" lon="4.599446"><time>2026-05-06T21:17:48Z</time></trkpt>
<trkpt lat="50.061108" lon="4.599596"><time>2026-05-06T21:27:48Z</time></trkpt>
<trkpt lat="50.059248" lon="4.598766"><time>2026-05-06T21:37:48Z</time></trkpt>
<trkpt lat="50.058637" lon="4.598042"><time>2026-05-06T21:47:48Z</time></trkpt>
<trkpt lat="50.058161" lon="4.597101"><time>2026-05-06T21:57:48Z</time></trkpt>
<trkpt lat="50.057328" lon="4.594246"><time>2026-05-06T22:07:48Z</time></trkpt>
<trkpt lat="50.056962" lon="4.593693"><time>2026-05-06T22:17:48Z</time></trkpt>
<trkpt lat="50.056868" lon="4.593576"><time>2026-05-06T22:27:48Z</time></trkpt>
<trkpt lat="50.056386" lon="4.592835"><time>2026-05-06T22:37:48Z</time></trkpt>
<trkpt lat="50.056114" lon="4.592669"><time>2026-05-06T22:47:48Z</time></trkpt>
<trkpt lat="50.055118" lon="4.592796"><time>2026-05-06T22:57:48Z</time></trkpt>
<trkpt lat="50.053428" lon="4.592876"><time>2026-05-06T23:07:48Z</time></trkpt>
<trkpt lat="50.050528" lon="4.591466"><time>2026-05-06T23:17:48Z</time></trkpt>
<trkpt lat="50.047957" lon="4.593896"><time>2026-05-06T23:27:48Z</time></trkpt>
<trkpt lat="50.046027" lon="4.594936"><time>2026-05-06T23:37:48Z</time></trkpt>
<trkpt lat="50.045437" lon="4.595446"><time>2026-05-06T23:47:48Z</time></trkpt>
<trkpt lat="50.044587" lon="4.594476"><time>2026-05-06T23:57:48Z</time></trkpt>
<trkpt lat="50.040947" lon="4.593346"><time>2026-05-07T00:07:48Z</time></trkpt>
<trkpt lat="50.039987" lon="4.595696"><time>2026-05-07T00:17:48Z</time></trkpt>
<trkpt lat="50.038047" lon="4.596926"><time>2026-05-07T00:27:48Z</time></trkpt>
<trkpt lat="50.035237" lon="4.596956"><time>2026-05-07T00:37:48Z</time></trkpt>
<trkpt lat="50.032835" lon="4.598724"><time>2026-05-07T00:47:48Z</time></trkpt>
<trkpt lat="50.032287" lon="4.599786"><time>2026-05-07T00:57:48Z</time></trkpt>
</trkseg>
</trk>
<trk>
<name>nvvovr1</name>
<cmt>r</cmt>
<desc>Olloy-sur-Viroin Chemin de remembrement n°r1 Rue des Florins</desc>
<link href="https://chemins.be/olloy/chemin/r1"/><trkseg>
<trkpt lat="50.084440" lon="4.618924"><time>2026-05-06T18:37:48Z</time></trkpt>
<trkpt lat="50.086537" lon="4.618334"><time>2026-05-06T18:47:48Z</time></trkpt>
<trkpt lat="50.086843" lon="4.618126"><time>2026-05-06T18:57:48Z</time></trkpt>
<trkpt lat="50.087005" lon="4.617750"><time>2026-05-06T19:07:48Z</time></trkpt>
<trkpt lat="50.087037" lon="4.615375"><time>2026-05-06T19:17:48Z</time></trkpt>
</trkseg>
</trk>
<trk>
<name>nvvovr2</name>
<cmt>v</cmt>
<desc>Olloy-sur-Viroin Chemin de remembrement n°r2 </desc>
<link href="https://chemins.be/olloy/chemin/r2"/><trkseg>
<trkpt lat="50.087028" lon="4.615514"><time>2026-05-06T18:37:48Z</time></trkpt>
<trkpt lat="50.086524" lon="4.615596"><time>2026-05-06T18:47:48Z</time></trkpt>
<trkpt lat="50.085862" lon="4.614432"><time>2026-05-06T18:57:48Z</time></trkpt>
<trkpt lat="50.085460" lon="4.613061"><time>2026-05-06T19:07:48Z</time></trkpt>
<trkpt lat="50.085193" lon="4.611942"><time>2026-05-06T19:17:48Z</time></trkpt>
</trkseg>
</trk>
</gpx>